Observation data for Menard on 05/26/2019      Previous  Date  Next       Current Mesonet Observations  Soil Data  Daily Summary Page  Observations in Plain Language
KMD1 260500Z 14007KT 24/20 A3002 RMK A01 T02360197  RH  079%=      5-min Rain = 0
KMD1 260501Z 15007KT 24/20 A3002 RMK A01 T02360197  RH  079%=      5-min Rain = 0
KMD1 260502Z 15006KT 24/20 A3002 RMK A01 T02360197  RH  079%=      5-min Rain = 0
KMD1 260503Z 14007KT 24/20 A3002 RMK A01 T02350197  RH  079%=      5-min Rain = 0
KMD1 260504Z 14007KT 24/20 A3002 RMK A01 T02350198  RH  079%=      5-min Rain = 0
KMD1 260505Z 14007KT 24/20 A3002 RMK A01 T02350198  RH  080%=      5-min Rain = 0
KMD1 260506Z 15006KT 23/20 A3002 RMK A01 T02340198  RH  080%=      5-min Rain = 0
KMD1 260507Z 15008KT 23/20 A3002 RMK A01 T02340198  RH  080%=      5-min Rain = 0
KMD1 260508Z 15008KT 23/20 A3002 RMK A01 T02340198  RH  080%=      5-min Rain = 0
KMD1 260509Z 13007KT 24/20 A3002 RMK A01 T02350197  RH  079%=      5-min Rain = 0
KMD1 260510Z 13008KT 24/20 A3002 RMK A01 T02350197  RH  079%=      5-min Rain = 0
KMD1 260511Z 15007KT 24/20 A3002 RMK A01 T02350198  RH  080%=      5-min Rain = 0
KMD1 260512Z 15006KT 24/20 A3002 RMK A01 T02350198  RH  080%=      5-min Rain = 0
KMD1 260513Z 15006KT 24/20 A3002 RMK A01 T02350198  RH  080%=      5-min Rain = 0
KMD1 260514Z 14007KT 23/20 A3002 RMK A01 T02340198  RH  080%=      5-min Rain = 0
KMD1 260515Z 14007KT 23/20 A3002 RMK A01 T02340198  RH  080%=      5-min Rain = 0
KMD1 260516Z 15008KT 23/20 A3002 RMK A01 T02340198  RH  080%=      5-min Rain = 0
KMD1 260517Z 15005KT 23/20 A3002 RMK A01 T02340198  RH  080%=      5-min Rain = 0
KMD1 260518Z 14005KT 23/20 A3002 RMK A01 T02320198  RH  081%=      5-min Rain = 0
KMD1 260519Z 15008KT 23/20 A3002 RMK A01 T02320198  RH  081%=      5-min Rain = 0
KMD1 260520Z 16009KT 23/20 A3002 RMK A01 T02310198  RH  081%=      5-min Rain = 0
KMD1 260521Z 14007KT 23/20 A3002 RMK A01 T02320197  RH  081%=      5-min Rain = 0
KMD1 260522Z 15006KT 23/20 A3002 RMK A01 T02320198  RH  081%=      5-min Rain = 0
KMD1 260523Z 15006KT 23/20 A3002 RMK A01 T02320198  RH  081%=      5-min Rain = 0
KMD1 260524Z 14006KT 23/20 A3002 RMK A01 T02310198  RH  082%=      5-min Rain = 0
KMD1 260525Z 14008KT 23/20 A3002 RMK A01 T02300198  RH  082%=      5-min Rain = 0
KMD1 260526Z 15008KT 23/20 A3002 RMK A01 T02300198  RH  082%=      5-min Rain = 0
KMD1 260527Z 15009KT 23/20 A3002 RMK A01 T02310198  RH  081%=      5-min Rain = 0
KMD1 260528Z 16008KT 23/20 A3002 RMK A01 T02320197  RH  081%=      5-min Rain = 0
KMD1 260529Z 15008KT 23/20 A3002 RMK A01 T02330198  RH  081%=      5-min Rain = 0
KMD1 260530Z 15008KT 23/20 A3001 RMK A01 T02320198  RH  081%=      5-min Rain = 0
KMD1 260531Z 15006KT 23/20 A3002 RMK A01 T02320198  RH  081%=      5-min Rain = 0
KMD1 260532Z 15007KT 23/20 A3001 RMK A01 T02310198  RH  081%=      5-min Rain = 0
KMD1 260533Z 15007KT 23/20 A3001 RMK A01 T02310198  RH  082%=      5-min Rain = 0
KMD1 260534Z 15006KT 23/20 A3001 RMK A01 T02310198  RH  082%=      5-min Rain = 0
KMD1 260535Z 15007KT 23/20 A3001 RMK A01 T02300198  RH  082%=      5-min Rain = 0
KMD1 260536Z 14008KT 23/20 A3001 RMK A01 T02300198  RH  082%=      5-min Rain = 0
KMD1 260537Z 15008KT 23/20 A3001 RMK A01 T02300198  RH  082%=      5-min Rain = 0
KMD1 260538Z 15007KT 23/20 A3001 RMK A01 T02300197  RH  082%=      5-min Rain = 0
KMD1 260539Z 15008KT 23/20 A3001 RMK A01 T02300198  RH  082%=      5-min Rain = 0
KMD1 260540Z 16008KT 23/20 A3001 RMK A01 T02300198  RH  082%=      5-min Rain = 0
KMD1 260541Z 15006KT 23/20 A3001 RMK A01 T02300197  RH  082%=      5-min Rain = 0
KMD1 260542Z 15008KT 23/20 A3001 RMK A01 T02300198  RH  082%=      5-min Rain = 0
KMD1 260543Z 15008KT 23/20 A3001 RMK A01 T02300197  RH  082%=      5-min Rain = 0
KMD1 260544Z 16009KT 23/20 A3001 RMK A01 T02300197  RH  082%=      5-min Rain = 0
KMD1 260545Z 16013KT 23/20 A3001 RMK A01 T02300196  RH  081%=      5-min Rain = 0
KMD1 260546Z 16012KT 23/20 A3001 RMK A01 T02310196  RH  081%=      5-min Rain = 0
KMD1 260547Z 16009KT 23/20 A3001 RMK A01 T02320197  RH  081%=      5-min Rain = 0
KMD1 260548Z 16009KT 23/20 A3001 RMK A01 T02310197  RH  081%=      5-min Rain = 0
KMD1 260549Z 15009KT 23/20 A3001 RMK A01 T02310196  RH  081%=      5-min Rain = 0
KMD1 260550Z 15008KT 23/20 A3001 RMK A01 T02310196  RH  081%=      5-min Rain = 0
KMD1 260551Z 15008KT 23/20 A3001 RMK A01 T02300196  RH  081%=      5-min Rain = 0
KMD1 260552Z 14007KT 23/20 A3001 RMK A01 T02300196  RH  082%=      5-min Rain = 0
KMD1 260553Z 14009KT 23/20 A3001 RMK A01 T02300197  RH  082%=      5-min Rain = 0
KMD1 260554Z 13009KT 23/20 A3001 RMK A01 T02290196  RH  082%=      5-min Rain = 0
KMD1 260555Z 15007KT 23/20 A3001 RMK A01 T02290196  RH  082%=      5-min Rain = 0
KMD1 260556Z 15007KT 23/20 A3001 RMK A01 T02280196  RH  082%=      5-min Rain = 0
KMD1 260557Z 15009KT 23/20 A3001 RMK A01 T02270196  RH  082%=      5-min Rain = 0
KMD1 260558Z 15010KT 23/20 A3001 RMK A01 T02270195  RH  082%=      5-min Rain = 0
KMD1 260559Z 15008KT 23/20 A3001 RMK A01 T02270195  RH  082%=      5-min Rain = 0
KMD1 260600Z 15008KT 23/20 A3001 RMK A01 T02270195  RH  082%=      5-min Rain = 0
KMD1 260601Z 15010KT 23/20 A3001 RMK A01 T02270195  RH  082%=      5-min Rain = 0
KMD1 260602Z 16008KT 23/20 A3001 RMK A01 T02270195  RH  082%=      5-min Rain = 0
KMD1 260603Z 16008KT 23/20 A3001 RMK A01 T02260195  RH  082%=      5-min Rain = 0
KMD1 260604Z 15008KT 23/20 A3001 RMK A01 T02260195  RH  083%=      5-min Rain = 0
KMD1 260605Z 16011KT 23/19 A3001 RMK A01 T02250194  RH  083%=      5-min Rain = 0
KMD1 260606Z 16010KT 23/19 A3001 RMK A01 T02250193  RH  082%=      5-min Rain = 0
KMD1 260607Z 17012KT 23/19 A3001 RMK A01 T02270194  RH  082%=      5-min Rain = 0
KMD1 260608Z 15008KT 23/19 A3001 RMK A01 T02270194  RH  081%=      5-min Rain = 0
KMD1 260609Z 16010KT 23/19 A3001 RMK A01 T02260194  RH  082%=      5-min Rain = 0
KMD1 260610Z 15011KT 23/19 A3001 RMK A01 T02250194  RH  082%=      5-min Rain = 0
KMD1 260611Z 16013KT 23/19 A3001 RMK A01 T02250193  RH  082%=      5-min Rain = 0
KMD1 260612Z 16010KT 23/19 A3001 RMK A01 T02260193  RH  082%=      5-min Rain = 0
KMD1 260613Z 15009KT 23/19 A30 RMK A01 T02260193  RH  081%=      5-min Rain = 0
KMD1 260614Z 15011KT 23/19 A30 RMK A01 T02270193  RH  081%=      5-min Rain = 0
KMD1 260615Z 15012KT 23/19 A30 RMK A01 T02260193  RH  082%=      5-min Rain = 0
KMD1 260616Z 16011KT 23/19 A30 RMK A01 T02260193  RH  081%=      5-min Rain = 0
KMD1 260617Z 15009KT 23/19 A30 RMK A01 T02260193  RH  081%=      5-min Rain = 0
KMD1 260618Z 16010KT 23/19 A30 RMK A01 T02260193  RH  082%=      5-min Rain = 0
KMD1 260619Z 15009KT 23/19 A30 RMK A01 T02250193  RH  082%=      5-min Rain = 0
KMD1 260620Z 15008KT 23/19 A30 RMK A01 T02250193  RH  082%=      5-min Rain = 0
KMD1 260621Z 16011KT 22/19 A30 RMK A01 T02240193  RH  082%=      5-min Rain = 0
KMD1 260622Z 15009KT 22/19 A30 RMK A01 T02240193  RH  082%=      5-min Rain = 0
KMD1 260623Z 16010KT 22/19 A30 RMK A01 T02240193  RH  082%=      5-min Rain = 0
KMD1 260624Z 15008KT 22/19 A30 RMK A01 T02240192  RH  082%=      5-min Rain = 0
KMD1 260625Z 15008KT 22/19 A30 RMK A01 T02230193  RH  083%=      5-min Rain = 0
KMD1 260626Z 15010KT 22/19 A30 RMK A01 T02230193  RH  083%=      5-min Rain = 0
KMD1 260627Z 15009KT 22/19 A30 RMK A01 T02230193  RH  083%=      5-min Rain = 0
KMD1 260628Z 16009KT 22/19 A30 RMK A01 T02230192  RH  083%=      5-min Rain = 0
KMD1 260629Z 15011KT 22/19 A30 RMK A01 T02230192  RH  083%=      5-min Rain = 0
KMD1 260630Z 15011KT 22/19 A30 RMK A01 T02230192  RH  083%=      5-min Rain = 0
KMD1 260631Z 15011KT 22/19 A30 RMK A01 T02230192  RH  082%=      5-min Rain = 0
KMD1 260632Z 15009KT 22/19 A30 RMK A01 T02230192  RH  082%=      5-min Rain = 0
KMD1 260633Z 15010KT 22/19 A30 RMK A01 T02230192  RH  083%=      5-min Rain = 0
KMD1 260634Z 15009KT 22/19 A30 RMK A01 T02230192  RH  083%=      5-min Rain = 0
KMD1 260635Z 14007KT 22/19 A30 RMK A01 T02220192  RH  083%=      5-min Rain = 0
KMD1 260636Z 14010KT 22/19 A30 RMK A01 T02220192  RH  083%=      5-min Rain = 0
KMD1 260637Z 15007KT 22/19 A30 RMK A01 T02220192  RH  083%=      5-min Rain = 0
KMD1 260638Z 15010KT 22/19 A30 RMK A01 T02210192  RH  083%=      5-min Rain = 0
KMD1 260639Z 15009KT 22/19 A30 RMK A01 T02210192  RH  083%=      5-min Rain = 0
KMD1 260640Z 15007KT 22/19 A30 RMK A01 T02210191  RH  083%=      5-min Rain = 0
KMD1 260641Z 14010KT 22/19 A30 RMK A01 T02210191  RH  083%=      5-min Rain = 0
KMD1 260642Z 14012KT 22/19 A30 RMK A01 T02210191  RH  083%=      5-min Rain = 0
KMD1 260643Z 16010KT 22/19 A2999 RMK A01 T02210191  RH  083%=      5-min Rain = 0
KMD1 260644Z 15010KT 22/19 A2999 RMK A01 T02210191  RH  083%=      5-min Rain = 0
KMD1 260645Z 15009KT 22/19 A2999 RMK A01 T02210191  RH  083%=      5-min Rain = 0
KMD1 260646Z 15008KT 22/19 A2999 RMK A01 T02210191  RH  083%=      5-min Rain = 0
KMD1 260647Z 15010KT 22/19 A2999 RMK A01 T02200191  RH  083%=      5-min Rain = 0
KMD1 260648Z 15008KT 22/19 A2999 RMK A01 T02200191  RH  083%=      5-min Rain = 0
KMD1 260649Z 15008G13KT 22/19 A2999 RMK A01 T02200191  RH  083%=      5-min Rain = 0
KMD1 260650Z 14011KT 22/19 A2999 RMK A01 T02200191  RH  084%=      5-min Rain = 0
KMD1 260651Z 15007KT 22/19 A2999 RMK A01 T02200191  RH  083%=      5-min Rain = 0
KMD1 260652Z 15006KT 22/19 A2999 RMK A01 T02190191  RH  084%=      5-min Rain = 0
KMD1 260653Z 14009KT 22/19 A2999 RMK A01 T02180190  RH  084%=      5-min Rain = 0
KMD1 260654Z 14007KT 22/19 A2999 RMK A01 T02190191  RH  084%=      5-min Rain = 0
KMD1 260655Z 15007KT 22/19 A2999 RMK A01 T02190191  RH  084%=      5-min Rain = 0
KMD1 260656Z 14008KT 22/19 A2999 RMK A01 T02180190  RH  084%=      5-min Rain = 0
KMD1 260657Z 15009KT 22/19 A2999 RMK A01 T02180191  RH  084%=      5-min Rain = 0
KMD1 260658Z 15010KT 22/19 A2999 RMK A01 T02180190  RH  084%=      5-min Rain = 0
KMD1 260659Z 14010KT 22/19 A2999 RMK A01 T02180190  RH  084%=      5-min Rain = 0
KMD1 260700Z 14009KT 22/19 A2999 RMK A01 T02180190  RH  084%=      5-min Rain = 0
KMD1 260701Z 15009KT 22/19 A2999 RMK A01 T02180190  RH  084%=      5-min Rain = 0
KMD1 260702Z 15010KT 22/19 A2999 RMK A01 T02180190  RH  084%=      5-min Rain = 0
KMD1 260703Z 15010KT 22/19 A2999 RMK A01 T02180190  RH  084%=      5-min Rain = 0
KMD1 260704Z 15010KT 22/19 A2999 RMK A01 T02180190  RH  084%=      5-min Rain = 0
KMD1 260705Z 15007KT 22/19 A2999 RMK A01 T02190190  RH  084%=      5-min Rain = 0
KMD1 260706Z 14008KT 22/19 A2999 RMK A01 T02190190  RH  084%=      5-min Rain = 0
KMD1 260707Z 15010KT 22/19 A2999 RMK A01 T02180190  RH  084%=      5-min Rain = 0
KMD1 260708Z 14009KT 22/19 A2999 RMK A01 T02180190  RH  084%=      5-min Rain = 0
KMD1 260709Z 14008KT 22/19 A2999 RMK A01 T02180190  RH  084%=      5-min Rain = 0
KMD1 260710Z 15008KT 22/19 A2999 RMK A01 T02180190  RH  084%=      5-min Rain = 0
KMD1 260711Z 14006KT 22/19 A2999 RMK A01 T02170189  RH  084%=      5-min Rain = 0
KMD1 260712Z 14008KT 22/19 A2999 RMK A01 T02170190  RH  084%=      5-min Rain = 0
KMD1 260713Z 14008KT 22/19 A2999 RMK A01 T02170190  RH  085%=      5-min Rain = 0
KMD1 260714Z 15007KT 22/19 A2999 RMK A01 T02170190  RH  085%=      5-min Rain = 0
KMD1 260715Z 14006KT 22/19 A2999 RMK A01 T02160189  RH  085%=      5-min Rain = 0
KMD1 260716Z 14007KT 22/19 A2999 RMK A01 T02160190  RH  085%=      5-min Rain = 0
KMD1 260717Z 15007KT 22/19 A2999 RMK A01 T02150189  RH  085%=      5-min Rain = 0
KMD1 260718Z 15008KT 22/19 A2999 RMK A01 T02150189  RH  085%=      5-min Rain = 0
KMD1 260719Z 15009KT 22/19 A2999 RMK A01 T02150189  RH  085%=      5-min Rain = 0
KMD1 260720Z 14009KT 22/19 A2999 RMK A01 T02150189  RH  085%=      5-min Rain = 0
KMD1 260721Z 15009KT 22/19 A2999 RMK A01 T02150189  RH  085%=      5-min Rain = 0
KMD1 260722Z 15010KT 22/19 A2999 RMK A01 T02150189  RH  085%=      5-min Rain = 0
KMD1 260723Z 14008KT 22/19 A2999 RMK A01 T02150189  RH  085%=      5-min Rain = 0
KMD1 260724Z 15007KT 22/19 A2999 RMK A01 T02150189  RH  085%=      5-min Rain = 0
KMD1 260725Z 14008KT 22/19 A2999 RMK A01 T02150189  RH  085%=      5-min Rain = 0
KMD1 260726Z 15009KT 22/19 A2999 RMK A01 T02150189  RH  085%=      5-min Rain = 0
KMD1 260727Z 15008KT 22/19 A2999 RMK A01 T02150188  RH  085%=      5-min Rain = 0
KMD1 260728Z 15009KT 22/19 A2999 RMK A01 T02150189  RH  085%=      5-min Rain = 0
KMD1 260729Z 16008KT 22/19 A2999 RMK A01 T02150189  RH  085%=      5-min Rain = 0
KMD1 260730Z 15007KT 22/19 A2999 RMK A01 T02150188  RH  085%=      5-min Rain = 0
KMD1 260731Z 15008KT 22/19 A2999 RMK A01 T02150188  RH  085%=      5-min Rain = 0
KMD1 260732Z 16011KT 22/19 A2999 RMK A01 T02150188  RH  085%=      5-min Rain = 0
KMD1 260733Z 15010KT 22/19 A2999 RMK A01 T02150188  RH  085%=      5-min Rain = 0
KMD1 260734Z 16009KT 22/19 A2999 RMK A01 T02150188  RH  085%=      5-min Rain = 0
KMD1 260735Z 15009KT 22/19 A2999 RMK A01 T02150188  RH  085%=      5-min Rain = 0
KMD1 260736Z 15008KT 22/19 A2999 RMK A01 T02150188  RH  085%=      5-min Rain = 0
KMD1 260737Z 15008KT 21/19 A2999 RMK A01 T02140188  RH  085%=      5-min Rain = 0
KMD1 260738Z 15009KT 21/19 A2999 RMK A01 T02140188  RH  085%=      5-min Rain = 0
KMD1 260739Z 15007KT 21/19 A2999 RMK A01 T02140188  RH  085%=      5-min Rain = 0
KMD1 260740Z 16006KT 21/19 A2999 RMK A01 T02140188  RH  085%=      5-min Rain = 0
KMD1 260741Z 15008KT 21/19 A2999 RMK A01 T02130188  RH  085%=      5-min Rain = 0
KMD1 260742Z 15010KT 21/19 A2999 RMK A01 T02130187  RH  085%=      5-min Rain = 0
KMD1 260743Z 15007KT 21/19 A2999 RMK A01 T02130187  RH  085%=      5-min Rain = 0
KMD1 260744Z 15009KT 21/19 A30 RMK A01 T02130187  RH  085%=      5-min Rain = 0
KMD1 260745Z 15008KT 21/19 A2999 RMK A01 T02130188  RH  085%=      5-min Rain = 0
KMD1 260746Z 15008KT 21/19 A2999 RMK A01 T02130187  RH  085%=      5-min Rain = 0
KMD1 260747Z 15008KT 21/19 A30 RMK A01 T02130187  RH  085%=      5-min Rain = 0
KMD1 260748Z 15007KT 21/19 A30 RMK A01 T02130187  RH  085%=      5-min Rain = 0
KMD1 260749Z 15007KT 21/19 A30 RMK A01 T02120187  RH  086%=      5-min Rain = 0
KMD1 260750Z 15007KT 21/19 A30 RMK A01 T02120187  RH  086%=      5-min Rain = 0
KMD1 260751Z 16007KT 21/19 A30 RMK A01 T02120187  RH  085%=      5-min Rain = 0
KMD1 260752Z 15007KT 21/19 A30 RMK A01 T02120187  RH  085%=      5-min Rain = 0
KMD1 260753Z 15009KT 21/19 A30 RMK A01 T02120187  RH  086%=      5-min Rain = 0
KMD1 260754Z 15008KT 21/19 A2999 RMK A01 T02120186  RH  085%=      5-min Rain = 0
KMD1 260755Z 15011KT 21/19 A2999 RMK A01 T02120186  RH  085%=      5-min Rain = 0
KMD1 260756Z 15010KT 21/19 A2999 RMK A01 T02120186  RH  085%=      5-min Rain = 0
KMD1 260757Z 15010KT 21/19 A2999 RMK A01 T02130186  RH  085%=      5-min Rain = 0
KMD1 260758Z 15011KT 21/19 A2999 RMK A01 T02130185  RH  084%=      5-min Rain = 0
KMD1 260759Z 15012KT 21/19 A2999 RMK A01 T02130185  RH  084%=      5-min Rain = 0
KMD1 260800Z 16009KT 21/19 A2999 RMK A01 T02130185  RH  084%=      5-min Rain = 0
KMD1 260801Z 16010KT 21/19 A2999 RMK A01 T02130185  RH  084%=      5-min Rain = 0
KMD1 260802Z 15011KT 21/19 A2999 RMK A01 T02120185  RH  085%=      5-min Rain = 0
KMD1 260803Z 16009KT 21/19 A2999 RMK A01 T02110185  RH  085%=      5-min Rain = 0
KMD1 260804Z 16010KT 21/19 A2999 RMK A01 T02110185  RH  085%=      5-min Rain = 0
KMD1 260805Z 16011KT 21/19 A2999 RMK A01 T02110185  RH  085%=      5-min Rain = 0
KMD1 260806Z 16012G17KT 21/19 A2999 RMK A01 T02110185  RH  085%=      5-min Rain = 0
KMD1 260807Z 16011KT 21/18 A2999 RMK A01 T02110184  RH  084%=      5-min Rain = 0
KMD1 260808Z 16008KT 21/18 A2999 RMK A01 T02120184  RH  084%=      5-min Rain = 0
KMD1 260809Z 16010KT 21/19 A2999 RMK A01 T02120185  RH  084%=      5-min Rain = 0
KMD1 260810Z 15011KT 21/19 A2999 RMK A01 T02120185  RH  085%=      5-min Rain = 0
KMD1 260811Z 15009KT 21/18 A2999 RMK A01 T02120184  RH  084%=      5-min Rain = 0
KMD1 260812Z 15011KT 21/19 A2998 RMK A01 T02110185  RH  085%=      5-min Rain = 0
KMD1 260813Z 15009KT 21/19 A2998 RMK A01 T02120185  RH  085%=      5-min Rain = 0
KMD1 260814Z 15010KT 21/19 A2998 RMK A01 T02110185  RH  085%=      5-min Rain = 0
KMD1 260815Z 15009KT 21/19 A2998 RMK A01 T02100185  RH  085%=      5-min Rain = 0
KMD1 260816Z 15011KT 21/19 A2998 RMK A01 T02100185  RH  086%=      5-min Rain = 0
KMD1 260817Z 15009KT 21/18 A2998 RMK A01 T02100184  RH  085%=      5-min Rain = 0
KMD1 260818Z 15009KT 21/18 A2998 RMK A01 T02100184  RH  085%=      5-min Rain = 0
KMD1 260819Z 14008KT 21/18 A2998 RMK A01 T02100184  RH  085%=      5-min Rain = 0
KMD1 260820Z 14006KT 21/18 A2998 RMK A01 T02100184  RH  085%=      5-min Rain = 0
KMD1 260821Z 14007KT 21/19 A2998 RMK A01 T02100185  RH  085%=      5-min Rain = 0
KMD1 260822Z 14007KT 21/19 A2998 RMK A01 T02090185  RH  086%=      5-min Rain = 0
KMD1 260823Z 14007KT 21/19 A2998 RMK A01 T02080185  RH  087%=      5-min Rain = 0
KMD1 260824Z 14007KT 21/18 A2998 RMK A01 T02080184  RH  086%=      5-min Rain = 0
KMD1 260825Z 15006KT 21/18 A2998 RMK A01 T02080184  RH  086%=      5-min Rain = 0
KMD1 260826Z 14006KT 21/18 A2998 RMK A01 T02080184  RH  086%=      5-min Rain = 0
KMD1 260827Z 15008KT 21/18 A2998 RMK A01 T02080184  RH  087%=      5-min Rain = 0
KMD1 260828Z 14006KT 21/19 A2998 RMK A01 T02070185  RH  087%=      5-min Rain = 0
KMD1 260829Z 14006KT 21/19 A2998 RMK A01 T02070185  RH  087%=      5-min Rain = 0
KMD1 260830Z 14007KT 21/19 A2998 RMK A01 T02070185  RH  087%=      5-min Rain = 0
KMD1 260831Z 14006KT 21/19 A2998 RMK A01 T02070185  RH  087%=      5-min Rain = 0
KMD1 260832Z 13008KT 21/19 A2998 RMK A01 T02070185  RH  087%=      5-min Rain = 0
KMD1 260833Z 14008KT 21/19 A2998 RMK A01 T02060185  RH  087%=      5-min Rain = 0
KMD1 260834Z 14007KT 21/19 A2998 RMK A01 T02060185  RH  088%=      5-min Rain = 0
KMD1 260835Z 14007KT 21/19 A2998 RMK A01 T02060185  RH  087%=      5-min Rain = 0
KMD1 260836Z 15007KT 21/18 A2998 RMK A01 T02060184  RH  088%=      5-min Rain = 0
KMD1 260837Z 14010KT 21/19 A2998 RMK A01 T02060185  RH  088%=      5-min Rain = 0
KMD1 260838Z 15006KT 21/19 A2998 RMK A01 T02060185  RH  087%=      5-min Rain = 0
KMD1 260839Z 15007KT 21/18 A2998 RMK A01 T02060184  RH  087%=      5-min Rain = 0
KMD1 260840Z 14006KT 21/19 A2998 RMK A01 T02060185  RH  088%=      5-min Rain = 0
KMD1 260841Z 15007KT 21/19 A2998 RMK A01 T02050185  RH  088%=      5-min Rain = 0
KMD1 260842Z 14008KT 21/19 A2998 RMK A01 T02050185  RH  088%=      5-min Rain = 0
KMD1 260843Z 14008KT 21/19 A2998 RMK A01 T02060185  RH  088%=      5-min Rain = 0
KMD1 260844Z 15008KT 21/18 A2998 RMK A01 T02060184  RH  088%=      5-min Rain = 0
KMD1 260845Z 15007KT 21/18 A2998 RMK A01 T02060184  RH  087%=      5-min Rain = 0
KMD1 260846Z 16008KT 21/18 A2998 RMK A01 T02060184  RH  087%=      5-min Rain = 0
KMD1 260847Z 15006KT 21/18 A2998 RMK A01 T02060184  RH  087%=      5-min Rain = 0
KMD1 260848Z 16006KT 21/19 A2998 RMK A01 T02070185  RH  087%=      5-min Rain = 0
KMD1 260849Z 15005KT 21/19 A2998 RMK A01 T02060185  RH  088%=      5-min Rain = 0
KMD1 260850Z 16007KT 21/19 A2998 RMK A01 T02050185  RH  088%=      5-min Rain = 0
KMD1 260851Z 15009KT 21/19 A2999 RMK A01 T02050185  RH  088%=      5-min Rain = 0
KMD1 260852Z 15010KT 21/18 A2999 RMK A01 T02050184  RH  088%=      5-min Rain = 0
KMD1 260853Z 15009KT 21/18 A2999 RMK A01 T02060184  RH  087%=      5-min Rain = 0
KMD1 260854Z 15009KT 21/18 A2999 RMK A01 T02060183  RH  087%=      5-min Rain = 0
KMD1 260855Z 16011KT 21/18 A2999 RMK A01 T02070183  RH  086%=      5-min Rain = 0
KMD1 260856Z 16010KT 21/18 A2999 RMK A01 T02080184  RH  086%=      5-min Rain = 0
KMD1 260857Z 15009KT 21/18 A2999 RMK A01 T02080184  RH  086%=      5-min Rain = 0
KMD1 260858Z 16008KT 21/18 A2999 RMK A01 T02080183  RH  086%=      5-min Rain = 0
KMD1 260859Z 15009KT 21/18 A2999 RMK A01 T02080183  RH  086%=      5-min Rain = 0
KMD1 260900Z 16010KT 21/18 A2999 RMK A01 T02080183  RH  085%=      5-min Rain = 0
KMD1 260901Z 16009KT 21/18 A2999 RMK A01 T02080182  RH  085%=      5-min Rain = 0
KMD1 260902Z 15009KT 21/18 A2999 RMK A01 T02080182  RH  085%=      5-min Rain = 0
KMD1 260903Z 15011KT 21/18 A2999 RMK A01 T02080182  RH  085%=      5-min Rain = 0
KMD1 260904Z 16012KT 21/18 A2999 RMK A01 T02090182  RH  085%=      5-min Rain = 0
KMD1 260905Z 17012KT 21/18 A2999 RMK A01 T02090181  RH  084%=      5-min Rain = 0
KMD1 260906Z 14010KT 21/18 A2999 RMK A01 T02090181  RH  084%=      5-min Rain = 0
KMD1 260907Z 16013KT 21/18 A2999 RMK A01 T02090181  RH  084%=      5-min Rain = 0
KMD1 260908Z 16011KT 21/18 A2999 RMK A01 T02090180  RH  083%=      5-min Rain = 0
KMD1 260909Z 15009KT 21/18 A2999 RMK A01 T02100180  RH  083%=      5-min Rain = 0
KMD1 260910Z 15010G16KT 21/18 A2999 RMK A01 T02100181  RH  084%=      5-min Rain = 0
KMD1 260911Z 16014KT 21/18 A2999 RMK A01 T02100181  RH  083%=      5-min Rain = 0
KMD1 260912Z 16008KT 21/18 A2999 RMK A01 T02100180  RH  083%=      5-min Rain = 0
KMD1 260913Z 16010KT 21/18 A2999 RMK A01 T02100181  RH  083%=      5-min Rain = 0
KMD1 260914Z 15009KT 21/18 A2999 RMK A01 T02100181  RH  083%=      5-min Rain = 0
KMD1 260915Z 14011KT 21/18 A2999 RMK A01 T02100181  RH  083%=      5-min Rain = 0
KMD1 260916Z 16010KT 21/18 A2999 RMK A01 T02090180  RH  083%=      5-min Rain = 0
KMD1 260917Z 16013KT 21/18 A2999 RMK A01 T02090180  RH  083%=      5-min Rain = 0
KMD1 260918Z 15012KT 21/18 A2999 RMK A01 T02090180  RH  083%=      5-min Rain = 0
KMD1 260919Z 15009KT 21/18 A2999 RMK A01 T02100180  RH  083%=      5-min Rain = 0
KMD1 260920Z 15009KT 21/18 A2999 RMK A01 T02090180  RH  083%=      5-min Rain = 0
KMD1 260921Z 15011KT 21/18 A2999 RMK A01 T02090180  RH  084%=      5-min Rain = 0
KMD1 260922Z 16011KT 21/18 A2999 RMK A01 T02090180  RH  083%=      5-min Rain = 0
KMD1 260923Z 16012KT 21/18 A2999 RMK A01 T02090180  RH  083%=      5-min Rain = 0
KMD1 260924Z 16011KT 21/18 A2999 RMK A01 T02090180  RH  083%=      5-min Rain = 0
KMD1 260925Z 16008KT 21/18 A2999 RMK A01 T02090180  RH  083%=      5-min Rain = 0
KMD1 260926Z 16008KT 21/18 A2999 RMK A01 T02090180  RH  083%=      5-min Rain = 0
KMD1 260927Z 15010KT 21/18 A2999 RMK A01 T02090180  RH  084%=      5-min Rain = 0
KMD1 260928Z 15011KT 21/18 A2999 RMK A01 T02090180  RH  084%=      5-min Rain = 0
KMD1 260929Z 15012KT 21/18 A2999 RMK A01 T02090180  RH  083%=      5-min Rain = 0
KMD1 260930Z 16009KT 21/18 A2999 RMK A01 T02090179  RH  083%=      5-min Rain = 0
KMD1 260931Z 16009KT 21/18 A2999 RMK A01 T02100180  RH  083%=      5-min Rain = 0
KMD1 260932Z 15008KT 21/18 A2999 RMK A01 T02090180  RH  083%=      5-min Rain = 0
KMD1 260933Z 15009KT 21/18 A2999 RMK A01 T02090180  RH  083%=      5-min Rain = 0
KMD1 260934Z 14010KT 21/18 A2999 RMK A01 T02090180  RH  083%=      5-min Rain = 0
KMD1 260935Z 15009KT 21/18 A2999 RMK A01 T02090180  RH  083%=      5-min Rain = 0
KMD1 260936Z 14009KT 21/18 A2999 RMK A01 T02090180  RH  084%=      5-min Rain = 0
KMD1 260937Z 16011KT 21/18 A2999 RMK A01 T02090180  RH  083%=      5-min Rain = 0
KMD1 260938Z 16011KT 21/18 A2999 RMK A01 T02090179  RH  083%=      5-min Rain = 0
KMD1 260939Z 15010KT 21/18 A2999 RMK A01 T02090179  RH  083%=      5-min Rain = 0
KMD1 260940Z 15009KT 21/18 A2999 RMK A01 T02090179  RH  083%=      5-min Rain = 0
KMD1 260941Z 16009KT 21/18 A2999 RMK A01 T02090179  RH  083%=      5-min Rain = 0
KMD1 260942Z 16009KT 21/18 A2999 RMK A01 T02090180  RH  083%=      5-min Rain = 0
KMD1 260943Z 15011G16KT 21/18 A2999 RMK A01 T02090180  RH  083%=      5-min Rain = 0
KMD1 260944Z 15010KT 21/18 A2999 RMK A01 T02090180  RH  083%=      5-min Rain = 0
KMD1 260945Z 16010KT 21/18 A2999 RMK A01 T02090180  RH  084%=      5-min Rain = 0
KMD1 260946Z 15013KT 21/18 A2999 RMK A01 T02090180  RH  084%=      5-min Rain = 0
KMD1 260947Z 15013KT 21/18 A2999 RMK A01 T02080179  RH  083%=      5-min Rain = 0
KMD1 260948Z 15011KT 21/18 A2999 RMK A01 T02090179  RH  083%=      5-min Rain = 0
KMD1 260949Z 16010KT 21/18 A2999 RMK A01 T02090180  RH  084%=      5-min Rain = 0
KMD1 260950Z 15011KT 21/18 A2999 RMK A01 T02090180  RH  084%=      5-min Rain = 0
KMD1 260951Z 15011KT 21/18 A2999 RMK A01 T02090180  RH  084%=      5-min Rain = 0
KMD1 260952Z 16014KT 21/18 A2999 RMK A01 T02090180  RH  083%=      5-min Rain = 0
KMD1 260953Z 16012KT 21/18 A2999 RMK A01 T02090179  RH  083%=      5-min Rain = 0
KMD1 260954Z 16010KT 21/18 A2999 RMK A01 T02090180  RH  083%=      5-min Rain = 0
KMD1 260955Z 15011KT 21/18 A2999 RMK A01 T02090180  RH  084%=      5-min Rain = 0
KMD1 260956Z 16013KT 21/18 A2999 RMK A01 T02090180  RH  084%=      5-min Rain = 0
KMD1 260957Z 16012KT 21/18 A2999 RMK A01 T02090180  RH  083%=      5-min Rain = 0
KMD1 260958Z 17011KT 21/18 A2999 RMK A01 T02090180  RH  083%=      5-min Rain = 0
KMD1 260959Z 16010KT 21/18 A2999 RMK A01 T02090180  RH  084%=      5-min Rain = 0
KMD1 261000Z 16010KT 21/18 A2999 RMK A01 T02090180  RH  083%=      5-min Rain = 0
KMD1 261001Z 16008KT 21/18 A2999 RMK A01 T02090180  RH  083%=      5-min Rain = 0
KMD1 261002Z 16010KT 21/18 A2999 RMK A01 T02090180  RH  084%=      5-min Rain = 0
KMD1 261003Z 16011KT 21/18 A2999 RMK A01 T02090180  RH  084%=      5-min Rain = 0
KMD1 261004Z 17010G15KT 21/18 A2999 RMK A01 T02090180  RH  084%=      5-min Rain = 0
KMD1 261005Z 16013KT 21/18 A2999 RMK A01 T02090180  RH  083%=      5-min Rain = 0
KMD1 261006Z 17009KT 21/18 A2999 RMK A01 T02090180  RH  083%=      5-min Rain = 0
KMD1 261007Z 15009KT 21/18 A2999 RMK A01 T02090180  RH  084%=      5-min Rain = 0
KMD1 261008Z 15008KT 21/18 A2999 RMK A01 T02090180  RH  084%=      5-min Rain = 0
KMD1 261009Z 16009KT 21/18 A2999 RMK A01 T02090180  RH  084%=      5-min Rain = 0
KMD1 261010Z 16011KT 21/18 A30 RMK A01 T02080180  RH  084%=      5-min Rain = 0
KMD1 261011Z 15010KT 21/18 A30 RMK A01 T02080180  RH  084%=      5-min Rain = 0
KMD1 261012Z 16011KT 21/18 A2999 RMK A01 T02080180  RH  084%=      5-min Rain = 0
KMD1 261013Z 16010KT 21/18 A30 RMK A01 T02080180  RH  084%=      5-min Rain = 0
KMD1 261014Z 15009KT 21/18 A30 RMK A01 T02080180  RH  084%=      5-min Rain = 0
KMD1 261015Z 15010KT 21/18 A30 RMK A01 T02080180  RH  084%=      5-min Rain = 0
KMD1 261016Z 15010KT 21/18 A30 RMK A01 T02080181  RH  084%=      5-min Rain = 0
KMD1 261017Z 15011KT 21/18 A2999 RMK A01 T02080181  RH  084%=      5-min Rain = 0
KMD1 261018Z 15010KT 21/18 A30 RMK A01 T02080180  RH  084%=      5-min Rain = 0
KMD1 261019Z 15008KT 21/18 A30 RMK A01 T02070180  RH  084%=      5-min Rain = 0
KMD1 261020Z 16008KT 21/18 A30 RMK A01 T02070181  RH  085%=      5-min Rain = 0
KMD1 261021Z 16008KT 21/18 A30 RMK A01 T02070180  RH  085%=      5-min Rain = 0
KMD1 261022Z 16009KT 21/18 A30 RMK A01 T02070181  RH  085%=      5-min Rain = 0
KMD1 261023Z 16009KT 21/18 A30 RMK A01 T02060180  RH  085%=      5-min Rain = 0
KMD1 261024Z 16009KT 21/18 A30 RMK A01 T02070180  RH  085%=      5-min Rain = 0
KMD1 261025Z 16007KT 21/18 A30 RMK A01 T02070181  RH  085%=      5-min Rain = 0
KMD1 261026Z 16011KT 21/18 A30 RMK A01 T02070181  RH  085%=      5-min Rain = 0
KMD1 261027Z 16009KT 21/18 A30 RMK A01 T02070181  RH  085%=      5-min Rain = 0
KMD1 261028Z 16010KT 21/18 A30 RMK A01 T02070181  RH  085%=      5-min Rain = 0
KMD1 261029Z 16007KT 21/18 A30 RMK A01 T02060181  RH  085%=      5-min Rain = 0
KMD1 261030Z 16007KT 21/18 A30 RMK A01 T02060181  RH  085%=      5-min Rain = 0
KMD1 261031Z 15007KT 21/18 A30 RMK A01 T02060181  RH  085%=      5-min Rain = 0
KMD1 261032Z 16008KT 21/18 A30 RMK A01 T02060181  RH  086%=      5-min Rain = 0
KMD1 261033Z 16008KT 21/18 A30 RMK A01 T02050181  RH  086%=      5-min Rain = 0
KMD1 261034Z 16008KT 21/18 A30 RMK A01 T02050181  RH  086%=      5-min Rain = 0
KMD1 261035Z 15008KT 21/18 A30 RMK A01 T02050181  RH  086%=      5-min Rain = 0
KMD1 261036Z 16010KT 21/18 A30 RMK A01 T02050181  RH  086%=      5-min Rain = 0
KMD1 261037Z 15008KT 21/18 A30 RMK A01 T02050180  RH  086%=      5-min Rain = 0
KMD1 261038Z 15009KT 21/18 A30 RMK A01 T02050180  RH  086%=      5-min Rain = 0
KMD1 261039Z 16008KT 21/18 A30 RMK A01 T02050181  RH  086%=      5-min Rain = 0
KMD1 261040Z 16009KT 21/18 A30 RMK A01 T02050181  RH  086%=      5-min Rain = 0
KMD1 261041Z 16008KT 21/18 A30 RMK A01 T02050181  RH  086%=      5-min Rain = 0
KMD1 261042Z 15006KT 20/18 A30 RMK A01 T02040181  RH  086%=      5-min Rain = 0
KMD1 261043Z 15006KT 20/18 A30 RMK A01 T02040181  RH  087%=      5-min Rain = 0
KMD1 261044Z 15007KT 20/18 A30 RMK A01 T02030181  RH  087%=      5-min Rain = 0
KMD1 261045Z 14007KT 20/18 A30 RMK A01 T02030181  RH  087%=      5-min Rain = 0
KMD1 261046Z 15010KT 20/18 A30 RMK A01 T02030181  RH  087%=      5-min Rain = 0
KMD1 261047Z 15008KT 20/18 A30 RMK A01 T02030181  RH  087%=      5-min Rain = 0
KMD1 261048Z 15010KT 20/18 A30 RMK A01 T02030181  RH  087%=      5-min Rain = 0
KMD1 261049Z 16008KT 20/18 A30 RMK A01 T02040181  RH  086%=      5-min Rain = 0
KMD1 261050Z 16009KT 21/18 A30 RMK A01 T02050182  RH  087%=      5-min Rain = 0
KMD1 261051Z 15010KT 21/18 A30 RMK A01 T02050181  RH  086%=      5-min Rain = 0
KMD1 261052Z 16008KT 21/18 A30 RMK A01 T02050181  RH  086%=      5-min Rain = 0
KMD1 261053Z 17007KT 21/18 A30 RMK A01 T02060181  RH  086%=      5-min Rain = 0
KMD1 261054Z 16008KT 21/18 A30 RMK A01 T02060181  RH  086%=      5-min Rain = 0
KMD1 261055Z 15009KT 21/18 A30 RMK A01 T02060182  RH  086%=      5-min Rain = 0
KMD1 261056Z 15009KT 21/18 A30 RMK A01 T02060182  RH  086%=      5-min Rain = 0
KMD1 261057Z 15009KT 21/18 A30 RMK A01 T02060182  RH  086%=      5-min Rain = 0
KMD1 261058Z 16009KT 21/18 A30 RMK A01 T02060181  RH  086%=      5-min Rain = 0
KMD1 261059Z 14008KT 21/18 A30 RMK A01 T02060181  RH  086%=      5-min Rain = 0
KMD1 261100Z 16006KT 21/18 A3001 RMK A01 T02060182  RH  086%=      5-min Rain = 0
KMD1 261101Z 16007KT 21/18 A3001 RMK A01 T02060182  RH  086%=      5-min Rain = 0
KMD1 261102Z 15008KT 21/18 A3001 RMK A01 T02060182  RH  086%=      5-min Rain = 0
KMD1 261103Z 15009KT 21/18 A3001 RMK A01 T02060182  RH  086%=      5-min Rain = 0
KMD1 261104Z 15008KT 21/18 A3001 RMK A01 T02060182  RH  086%=      5-min Rain = 0
KMD1 261105Z 15008KT 21/18 A3001 RMK A01 T02060181  RH  086%=      5-min Rain = 0
KMD1 261106Z 15009KT 21/18 A3001 RMK A01 T02060182  RH  086%=      5-min Rain = 0
KMD1 261107Z 16009KT 21/18 A3001 RMK A01 T02060182  RH  086%=      5-min Rain = 0
KMD1 261108Z 14008KT 21/18 A3001 RMK A01 T02060181  RH  086%=      5-min Rain = 0
KMD1 261109Z 15008KT 21/18 A3001 RMK A01 T02060181  RH  086%=      5-min Rain = 0
KMD1 261110Z 15009KT 21/18 A3001 RMK A01 T02060181  RH  086%=      5-min Rain = 0
KMD1 261111Z 15010KT 21/18 A3001 RMK A01 T02060181  RH  086%=      5-min Rain = 0
KMD1 261112Z 15008KT 21/18 A3001 RMK A01 T02060181  RH  086%=      5-min Rain = 0
KMD1 261113Z 15007KT 21/18 A3001 RMK A01 T02060181  RH  086%=      5-min Rain = 0
KMD1 261114Z 15006KT 21/18 A3001 RMK A01 T02060181  RH  086%=      5-min Rain = 0
KMD1 261115Z 16008KT 21/18 A3001 RMK A01 T02050181  RH  086%=      5-min Rain = 0
KMD1 261116Z 15007KT 21/18 A3001 RMK A01 T02050181  RH  086%=      5-min Rain = 0
KMD1 261117Z 15009KT 21/18 A3001 RMK A01 T02050181  RH  086%=      5-min Rain = 0
KMD1 261118Z 15010KT 21/18 A3001 RMK A01 T02050181  RH  086%=      5-min Rain = 0
KMD1 261119Z 15011KT 21/18 A3001 RMK A01 T02060181  RH  086%=      5-min Rain = 0
KMD1 261120Z 15010KT 21/18 A3001 RMK A01 T02060180  RH  085%=      5-min Rain = 0
KMD1 261121Z 15010KT 21/18 A3001 RMK A01 T02070181  RH  085%=      5-min Rain = 0
KMD1 261122Z 15009KT 21/18 A3001 RMK A01 T02070181  RH  085%=      5-min Rain = 0
KMD1 261123Z 15011KT 21/18 A3001 RMK A01 T02070181  RH  085%=      5-min Rain = 0
KMD1 261124Z 15010KT 21/18 A3001 RMK A01 T02060181  RH  085%=      5-min Rain = 0
KMD1 261125Z 15010KT 21/18 A3001 RMK A01 T02070181  RH  085%=      5-min Rain = 0
KMD1 261126Z 15009KT 21/18 A3001 RMK A01 T02070181  RH  085%=      5-min Rain = 0
KMD1 261127Z 15008KT 21/18 A3001 RMK A01 T02070181  RH  085%=      5-min Rain = 0
KMD1 261128Z 16009KT 21/18 A3001 RMK A01 T02070181  RH  085%=      5-min Rain = 0
KMD1 261129Z 15008KT 21/18 A3001 RMK A01 T02060181  RH  085%=      5-min Rain = 0
KMD1 261130Z 15007KT 21/18 A3001 RMK A01 T02070181  RH  085%=      5-min Rain = 0
KMD1 261131Z 15009KT 21/18 A3001 RMK A01 T02070181  RH  085%=      5-min Rain = 0
KMD1 261132Z 15008KT 21/18 A3001 RMK A01 T02070181  RH  085%=      5-min Rain = 0
KMD1 261133Z 15008KT 21/18 A3001 RMK A01 T02060181  RH  085%=      5-min Rain = 0
KMD1 261134Z 15009KT 21/18 A3001 RMK A01 T02070182  RH  086%=      5-min Rain = 0
KMD1 261135Z 15009KT 21/18 A3001 RMK A01 T02070182  RH  086%=      5-min Rain = 0
KMD1 261136Z 15010KT 21/18 A3001 RMK A01 T02070181  RH  085%=      5-min Rain = 0
KMD1 261137Z 15009KT 21/18 A3001 RMK A01 T02070181  RH  085%=      5-min Rain = 0
KMD1 261138Z 16010KT 21/18 A3001 RMK A01 T02070181  RH  085%=      5-min Rain = 0
KMD1 261139Z 14010KT 21/18 A3001 RMK A01 T02080181  RH  085%=      5-min Rain = 0
KMD1 261140Z 15008KT 21/18 A3001 RMK A01 T02080182  RH  085%=      5-min Rain = 0
KMD1 261141Z 15009KT 21/18 A3001 RMK A01 T02080182  RH  085%=      5-min Rain = 0
KMD1 261142Z 15009KT 21/18 A3001 RMK A01 T02080182  RH  085%=      5-min Rain = 0
KMD1 261143Z 15009KT 21/18 A3001 RMK A01 T02080182  RH  085%=      5-min Rain = 0
KMD1 261144Z 15009KT 21/18 A3001 RMK A01 T02080182  RH  085%=      5-min Rain = 0
KMD1 261145Z 15008KT 21/18 A3001 RMK A01 T02080182  RH  085%=      5-min Rain = 0
KMD1 261146Z 15010KT 21/18 A3001 RMK A01 T02080182  RH  085%=      5-min Rain = 0
KMD1 261147Z 15009KT 21/18 A3001 RMK A01 T02080182  RH  085%=      5-min Rain = 0
KMD1 261148Z 16007KT 21/18 A3001 RMK A01 T02080182  RH  085%=      5-min Rain = 0
KMD1 261149Z 15009KT 21/18 A3001 RMK A01 T02080182  RH  085%=      5-min Rain = 0
KMD1 261150Z 15012KT 21/18 A3001 RMK A01 T02090182  RH  085%=      5-min Rain = 0
KMD1 261151Z 15009KT 21/18 A3001 RMK A01 T02090181  RH  084%=      5-min Rain = 0
KMD1 261152Z 15010KT 21/18 A3001 RMK A01 T02100181  RH  084%=      5-min Rain = 0
KMD1 261153Z 15009KT 21/18 A3001 RMK A01 T02100181  RH  084%=      5-min Rain = 0
KMD1 261154Z 16009KT 21/18 A3002 RMK A01 T02100182  RH  084%=      5-min Rain = 0
KMD1 261155Z 15008KT 21/18 A3002 RMK A01 T02100182  RH  084%=      5-min Rain = 0
KMD1 261156Z 15010KT 21/18 A3002 RMK A01 T02100181  RH  084%=      5-min Rain = 0
KMD1 261157Z 15007KT 21/18 A3002 RMK A01 T02100181  RH  083%=      5-min Rain = 0
KMD1 261158Z 16008KT 21/18 A3002 RMK A01 T02110182  RH  084%=      5-min Rain = 0
KMD1 261159Z 16011KT 21/18 A3002 RMK A01 T02110182  RH  084%=      5-min Rain = 0
KMD1 261200Z 16010KT 21/18 A3002 RMK A01 T02110182  RH  083%=      5-min Rain = 0
KMD1 261201Z 15010KT 21/18 A3002 RMK A01 T02110182  RH  083%=      5-min Rain = 0
KMD1 261202Z 15008KT 21/18 A3002 RMK A01 T02110182  RH  083%=      5-min Rain = 0
KMD1 261203Z 15007KT 21/18 A3002 RMK A01 T02110182  RH  084%=      5-min Rain = 0
KMD1 261204Z 15008KT 21/18 A3002 RMK A01 T02110183  RH  084%=      5-min Rain = 0
KMD1 261205Z 16009KT 21/18 A3002 RMK A01 T02110183  RH  084%=      5-min Rain = 0
KMD1 261206Z 15008KT 21/18 A3002 RMK A01 T02110182  RH  084%=      5-min Rain = 0
KMD1 261207Z 15008KT 21/18 A3002 RMK A01 T02110183  RH  084%=      5-min Rain = 0
KMD1 261208Z 15008KT 21/18 A3002 RMK A01 T02110182  RH  083%=      5-min Rain = 0
KMD1 261209Z 15006KT 21/18 A3002 RMK A01 T02110183  RH  084%=      5-min Rain = 0
KMD1 261210Z 16007KT 21/18 A3002 RMK A01 T02110183  RH  084%=      5-min Rain = 0
KMD1 261211Z 15007KT 21/18 A3002 RMK A01 T02110182  RH  083%=      5-min Rain = 0
KMD1 261212Z 16007KT 21/18 A3002 RMK A01 T02110182  RH  083%=      5-min Rain = 0
KMD1 261213Z 15008KT 21/18 A3002 RMK A01 T02120182  RH  083%=      5-min Rain = 0
KMD1 261214Z 16008KT 21/18 A3002 RMK A01 T02120183  RH  084%=      5-min Rain = 0
KMD1 261215Z 16008KT 21/18 A3002 RMK A01 T02120183  RH  083%=      5-min Rain = 0
KMD1 261216Z 15007KT 21/18 A3002 RMK A01 T02120183  RH  083%=      5-min Rain = 0
KMD1 261217Z 15007KT 21/18 A3002 RMK A01 T02120183  RH  084%=      5-min Rain = 0
KMD1 261218Z 14008KT 21/18 A3002 RMK A01 T02120184  RH  084%=      5-min Rain = 0
KMD1 261219Z 16008KT 21/18 A3002 RMK A01 T02120183  RH  084%=      5-min Rain = 0
KMD1 261220Z 16007KT 21/18 A3002 RMK A01 T02120183  RH  084%=      5-min Rain = 0
KMD1 261221Z 15008KT 21/18 A3003 RMK A01 T02120183  RH  084%=      5-min Rain = 0
KMD1 261222Z 15007KT 21/18 A3003 RMK A01 T02120183  RH  084%=      5-min Rain = 0
KMD1 261223Z 16008KT 21/18 A3003 RMK A01 T02120184  RH  084%=      5-min Rain = 0
KMD1 261224Z 16010KT 21/18 A3003 RMK A01 T02120183  RH  084%=      5-min Rain = 0
KMD1 261225Z 15008KT 21/18 A3003 RMK A01 T02130183  RH  083%=      5-min Rain = 0
KMD1 261226Z 15008KT 21/18 A3003 RMK A01 T02130183  RH  083%=      5-min Rain = 0
KMD1 261227Z 16008KT 21/18 A3003 RMK A01 T02130184  RH  083%=      5-min Rain = 0
KMD1 261228Z 15007KT 21/18 A3003 RMK A01 T02130184  RH  083%=      5-min Rain = 0
KMD1 261229Z 16008KT 21/18 A3003 RMK A01 T02130184  RH  083%=      5-min Rain = 0
KMD1 261230Z 16007KT 21/18 A3003 RMK A01 T02130184  RH  083%=      5-min Rain = 0
KMD1 261231Z 16010KT 21/18 A3003 RMK A01 T02140184  RH  083%=      5-min Rain = 0
KMD1 261232Z 16010KT 21/18 A3003 RMK A01 T02140184  RH  083%=      5-min Rain = 0
KMD1 261233Z 14009KT 21/18 A3003 RMK A01 T02140184  RH  083%=      5-min Rain = 0
KMD1 261234Z 15010KT 21/18 A3003 RMK A01 T02140184  RH  083%=      5-min Rain = 0
KMD1 261235Z 16009KT 21/18 A3003 RMK A01 T02140184  RH  083%=      5-min Rain = 0
KMD1 261236Z 16008KT 21/18 A3003 RMK A01 T02140184  RH  083%=      5-min Rain = 0
KMD1 261237Z 16008KT 21/19 A3003 RMK A01 T02140185  RH  083%=      5-min Rain = 0
KMD1 261238Z 15008KT 22/19 A3003 RMK A01 T02150185  RH  083%=      5-min Rain = 0
KMD1 261239Z 15008KT 22/18 A3003 RMK A01 T02150184  RH  082%=      5-min Rain = 0
KMD1 261240Z 16008KT 22/19 A3003 RMK A01 T02150185  RH  083%=      5-min Rain = 0
KMD1 261241Z 16008KT 22/19 A3003 RMK A01 T02150186  RH  083%=      5-min Rain = 0
KMD1 261242Z 16008KT 22/19 A3003 RMK A01 T02160186  RH  083%=      5-min Rain = 0
KMD1 261243Z 15009KT 22/19 A3003 RMK A01 T02150185  RH  083%=      5-min Rain = 0
KMD1 261244Z 15008G13KT 22/19 A3003 RMK A01 T02150185  RH  083%=      5-min Rain = 0
KMD1 261245Z 16008KT 22/19 A3003 RMK A01 T02150185  RH  083%=      5-min Rain = 0
KMD1 261246Z 15008KT 22/19 A3003 RMK A01 T02150185  RH  083%=      5-min Rain = 0
KMD1 261247Z 15008KT 22/18 A3003 RMK A01 T02150184  RH  083%=      5-min Rain = 0
KMD1 261248Z 15009KT 22/19 A3003 RMK A01 T02160185  RH  083%=      5-min Rain = 0
KMD1 261249Z 15010KT 22/19 A3003 RMK A01 T02160185  RH  083%=      5-min Rain = 0
KMD1 261250Z 15010KT 22/19 A3003 RMK A01 T02160185  RH  082%=      5-min Rain = 0
KMD1 261251Z 15009KT 22/19 A3003 RMK A01 T02170185  RH  082%=      5-min Rain = 0
KMD1 261252Z 15010KT 22/19 A3003 RMK A01 T02170185  RH  082%=      5-min Rain = 0
KMD1 261253Z 14008KT 22/19 A3003 RMK A01 T02170186  RH  082%=      5-min Rain = 0
KMD1 261254Z 15008KT 22/19 A3003 RMK A01 T02170186  RH  082%=      5-min Rain = 0
KMD1 261255Z 15010KT 22/19 A3003 RMK A01 T02170185  RH  082%=      5-min Rain = 0
KMD1 261256Z 15010KT 22/19 A3003 RMK A01 T02180186  RH  082%=      5-min Rain = 0
KMD1 261257Z 15009KT 22/19 A3003 RMK A01 T02180185  RH  081%=      5-min Rain = 0
KMD1 261258Z 15008KT 22/19 A3003 RMK A01 T02190185  RH  081%=      5-min Rain = 0
KMD1 261259Z 14009KT 22/19 A3003 RMK A01 T02190186  RH  082%=      5-min Rain = 0
KMD1 261300Z 15010KT 22/19 A3003 RMK A01 T02190187  RH  082%=      5-min Rain = 0
KMD1 261301Z 16009KT 22/19 A3003 RMK A01 T02190187  RH  082%=      5-min Rain = 0
KMD1 261302Z 16008KT 22/19 A3003 RMK A01 T02200187  RH  081%=      5-min Rain = 0
KMD1 261303Z 14008KT 22/19 A3003 RMK A01 T02200187  RH  082%=      5-min Rain = 0
KMD1 261304Z 15010KT 22/19 A3003 RMK A01 T02210187  RH  081%=      5-min Rain = 0
KMD1 261305Z 15009KT 22/19 A3003 RMK A01 T02210186  RH  080%=      5-min Rain = 0
KMD1 261306Z 16008KT 22/19 A3003 RMK A01 T02210186  RH  081%=      5-min Rain = 0
KMD1 261307Z 15007KT 22/19 A3003 RMK A01 T02210187  RH  081%=      5-min Rain = 0
KMD1 261308Z 15008KT 22/19 A3003 RMK A01 T02220188  RH  081%=      5-min Rain = 0
KMD1 261309Z 15007KT 22/19 A3003 RMK A01 T02220188  RH  081%=      5-min Rain = 0
KMD1 261310Z 15010KT 22/19 A3003 RMK A01 T02220187  RH  081%=      5-min Rain = 0
KMD1 261311Z 15009KT 22/19 A3003 RMK A01 T02220187  RH  081%=      5-min Rain = 0
KMD1 261312Z 16010KT 22/19 A3003 RMK A01 T02210187  RH  081%=      5-min Rain = 0
KMD1 261313Z 15008KT 22/19 A3003 RMK A01 T02210186  RH  081%=      5-min Rain = 0
KMD1 261314Z 16007KT 22/19 A3003 RMK A01 T02210188  RH  081%=      5-min Rain = 0
KMD1 261315Z 15009KT 22/19 A3003 RMK A01 T02210188  RH  081%=      5-min Rain = 0
KMD1 261316Z 16009KT 22/19 A3003 RMK A01 T02210187  RH  081%=      5-min Rain = 0
KMD1 261317Z 16013KT 22/19 A3003 RMK A01 T02210185  RH  080%=      5-min Rain = 0
KMD1 261318Z 15011KT 22/19 A3004 RMK A01 T02220185  RH  079%=      5-min Rain = 0
KMD1 261319Z 16010KT 22/19 A3004 RMK A01 T02220186  RH  080%=      5-min Rain = 0
KMD1 261320Z 14010KT 22/19 A3004 RMK A01 T02230187  RH  080%=      5-min Rain = 0
KMD1 261321Z 15008KT 22/19 A3004 RMK A01 T02230187  RH  080%=      5-min Rain = 0
KMD1 261322Z 16008KT 22/19 A3004 RMK A01 T02230187  RH  080%=      5-min Rain = 0
KMD1 261323Z 16008KT 22/19 A3004 RMK A01 T02230187  RH  080%=      5-min Rain = 0
KMD1 261324Z 15009KT 22/19 A3004 RMK A01 T02230189  RH  081%=      5-min Rain = 0
KMD1 261325Z 15009KT 22/19 A3004 RMK A01 T02240188  RH  080%=      5-min Rain = 0
KMD1 261326Z 16009KT 22/19 A3004 RMK A01 T02240187  RH  080%=      5-min Rain = 0
KMD1 261327Z 15012KT 22/19 A3004 RMK A01 T02240188  RH  080%=      5-min Rain = 0
KMD1 261328Z 16013KT 22/19 A3004 RMK A01 T02240187  RH  079%=      5-min Rain = 0
KMD1 261329Z 16010KT 23/19 A3004 RMK A01 T02250187  RH  079%=      5-min Rain = 0
KMD1 261330Z 16010KT 23/19 A3004 RMK A01 T02250187  RH  079%=      5-min Rain = 0
KMD1 261331Z 16009KT 23/19 A3004 RMK A01 T02250189  RH  080%=      5-min Rain = 0
KMD1 261332Z 15013KT 23/19 A3004 RMK A01 T02260188  RH  079%=      5-min Rain = 0
KMD1 261333Z 15012KT 23/19 A3004 RMK A01 T02260187  RH  079%=      5-min Rain = 0
KMD1 261334Z 15012KT 23/19 A3004 RMK A01 T02260188  RH  079%=      5-min Rain = 0
KMD1 261335Z 15011KT 23/19 A3004 RMK A01 T02260187  RH  079%=      5-min Rain = 0
KMD1 261336Z 16009KT 23/19 A3004 RMK A01 T02270190  RH  080%=      5-min Rain = 0
KMD1 261337Z 16007KT 23/19 A3004 RMK A01 T02270191  RH  080%=      5-min Rain = 0
KMD1 261338Z 15008KT 23/19 A3004 RMK A01 T02280191  RH  079%=      5-min Rain = 0
KMD1 261339Z 15008KT 23/19 A3004 RMK A01 T02290192  RH  079%=      5-min Rain = 0
KMD1 261340Z 15007KT 23/19 A3004 RMK A01 T02300192  RH  079%=      5-min Rain = 0
KMD1 261341Z 16009KT 23/19 A3004 RMK A01 T02320193  RH  079%=      5-min Rain = 0
KMD1 261342Z 16009KT 23/19 A3004 RMK A01 T02330192  RH  078%=      5-min Rain = 0
KMD1 261343Z 16009KT 23/19 A3004 RMK A01 T02330191  RH  077%=      5-min Rain = 0
KMD1 261344Z 15012KT 23/19 A3004 RMK A01 T02340192  RH  077%=      5-min Rain = 0
KMD1 261345Z 17010G15KT 23/19 A3004 RMK A01 T02330192  RH  078%=      5-min Rain = 0
KMD1 261346Z 17010KT 23/19 A3004 RMK A01 T02340189  RH  076%=      5-min Rain = 0
KMD1 261347Z 16008KT 23/19 A3005 RMK A01 T02330191  RH  077%=      5-min Rain = 0
KMD1 261348Z 16011KT 23/19 A3004 RMK A01 T02330191  RH  077%=      5-min Rain = 0
KMD1 261349Z 15011KT 23/19 A3004 RMK A01 T02330190  RH  077%=      5-min Rain = 0
KMD1 261350Z 16009KT 23/19 A3005 RMK A01 T02330192  RH  077%=      5-min Rain = 0
KMD1 261351Z 17009KT 23/19 A3005 RMK A01 T02330192  RH  077%=      5-min Rain = 0
KMD1 261352Z 16010KT 23/19 A3005 RMK A01 T02330190  RH  077%=      5-min Rain = 0
KMD1 261353Z 16011G16KT 23/19 A3005 RMK A01 T02330191  RH  077%=      5-min Rain = 0
KMD1 261354Z 16012KT 23/19 A3005 RMK A01 T02330190  RH  077%=      5-min Rain = 0
KMD1 261355Z 15013KT 23/19 A3005 RMK A01 T02320190  RH  077%=      5-min Rain = 0
KMD1 261356Z 15011KT 23/19 A3005 RMK A01 T02320191  RH  078%=      5-min Rain = 0
KMD1 261357Z 14009KT 23/19 A3005 RMK A01 T02320192  RH  078%=      5-min Rain = 0
KMD1 261358Z 16009KT 23/19 A3005 RMK A01 T02320192  RH  078%=      5-min Rain = 0
KMD1 261359Z 16008KT 23/19 A3005 RMK A01 T02310192  RH  078%=      5-min Rain = 0
KMD1 261400Z 16009KT 23/19 A3005 RMK A01 T02310191  RH  078%=      5-min Rain = 0
KMD1 261401Z 17009KT 23/19 A3005 RMK A01 T02310192  RH  078%=      5-min Rain = 0
KMD1 261402Z 16008KT 23/19 A3005 RMK A01 T02310192  RH  079%=      5-min Rain = 0
KMD1 261403Z 16010KT 23/19 A3005 RMK A01 T02310191  RH  078%=      5-min Rain = 0
KMD1 261404Z 16010KT 23/19 A3005 RMK A01 T02310191  RH  078%=      5-min Rain = 0
KMD1 261405Z 17011KT 23/19 A3005 RMK A01 T02310190  RH  078%=      5-min Rain = 0
KMD1 261406Z 17014KT 23/19 A3005 RMK A01 T02310190  RH  078%=      5-min Rain = 0
KMD1 261407Z 15012KT 23/19 A3005 RMK A01 T02310189  RH  077%=      5-min Rain = 0
KMD1 261408Z 17014KT 23/19 A3005 RMK A01 T02310190  RH  078%=      5-min Rain = 0
KMD1 261409Z 16014KT 23/19 A3005 RMK A01 T02310190  RH  077%=      5-min Rain = 0
KMD1 261410Z 16013KT 23/19 A3005 RMK A01 T02310189  RH  077%=      5-min Rain = 0
KMD1 261411Z 16011KT 23/19 A3005 RMK A01 T02310189  RH  077%=      5-min Rain = 0
KMD1 261412Z 16012KT 23/19 A3005 RMK A01 T02320191  RH  078%=      5-min Rain = 0
KMD1 261413Z 16015G20KT 23/19 A3005 RMK A01 T02320190  RH  077%=      5-min Rain = 0
KMD1 261414Z 17012KT 23/19 A3005 RMK A01 T02320190  RH  077%=      5-min Rain = 0
KMD1 261415Z 16013KT 23/19 A3005 RMK A01 T02330191  RH  077%=      5-min Rain = 0
KMD1 261416Z 17013KT 23/19 A3005 RMK A01 T02330190  RH  077%=      5-min Rain = 0
KMD1 261417Z 17012KT 23/19 A3005 RMK A01 T02330191  RH  077%=      5-min Rain = 0
KMD1 261418Z 17012KT 23/19 A3005 RMK A01 T02330192  RH  078%=      5-min Rain = 0
KMD1 261419Z 17011KT 23/19 A3005 RMK A01 T02330192  RH  077%=      5-min Rain = 0
KMD1 261420Z 16011G16KT 23/19 A3005 RMK A01 T02330193  RH  078%=      5-min Rain = 0
KMD1 261421Z 17014KT 23/19 A3005 RMK A01 T02330192  RH  077%=      5-min Rain = 0
KMD1 261422Z 16015KT 23/19 A3005 RMK A01 T02340192  RH  077%=      5-min Rain = 0
KMD1 261423Z 17015KT 23/19 A3005 RMK A01 T02340190  RH  076%=      5-min Rain = 0
KMD1 261424Z 17017KT 23/19 A3005 RMK A01 T02340192  RH  077%=      5-min Rain = 0
KMD1 261425Z 16012KT 24/19 A3005 RMK A01 T02350193  RH  077%=      5-min Rain = 0
KMD1 261426Z 16014KT 24/19 A3005 RMK A01 T02360194  RH  077%=      5-min Rain = 0
KMD1 261427Z 16011KT 24/19 A3005 RMK A01 T02360192  RH  076%=      5-min Rain = 0
KMD1 261428Z 16013KT 24/19 A3005 RMK A01 T02350193  RH  077%=      5-min Rain = 0
KMD1 261429Z 17010KT 24/19 A3005 RMK A01 T02360194  RH  077%=      5-min Rain = 0
KMD1 261430Z 17010KT 24/19 A3005 RMK A01 T02360194  RH  077%=      5-min Rain = 0
KMD1 261431Z 17013KT 24/19 A3005 RMK A01 T02360193  RH  077%=      5-min Rain = 0
KMD1 261432Z 17009KT 24/19 A3005 RMK A01 T02360193  RH  077%=      5-min Rain = 0
KMD1 261433Z 17007KT 24/19 A3005 RMK A01 T02360194  RH  077%=      5-min Rain = 0
KMD1 261434Z 16008KT 24/20 A3005 RMK A01 T02360196  RH  078%=      5-min Rain = 0
KMD1 261435Z 16013KT 24/19 A3005 RMK A01 T02370194  RH  077%=      5-min Rain = 0
KMD1 261436Z 16015KT 24/19 A3005 RMK A01 T02370192  RH  076%=      5-min Rain = 0
KMD1 261437Z 15013KT 24/19 A3006 RMK A01 T02360192  RH  076%=      5-min Rain = 0
KMD1 261438Z 17012KT 24/19 A3006 RMK A01 T02360193  RH  077%=      5-min Rain = 0
KMD1 261439Z 17010KT 24/19 A3006 RMK A01 T02360192  RH  077%=      5-min Rain = 0
KMD1 261440Z 16011KT 24/19 A3006 RMK A01 T02350192  RH  077%=      5-min Rain = 0
KMD1 261441Z 16011KT 24/19 A3006 RMK A01 T02360193  RH  077%=      5-min Rain = 0
KMD1 261442Z 17012KT 24/19 A3006 RMK A01 T02360193  RH  077%=      5-min Rain = 0
KMD1 261443Z 18009G14KT 24/19 A3006 RMK A01 T02360193  RH  077%=      5-min Rain = 0
KMD1 261444Z 17009KT 24/19 A3006 RMK A01 T02350193  RH  077%=      5-min Rain = 0
KMD1 261445Z 16014KT 24/19 A3006 RMK A01 T02350193  RH  077%=      5-min Rain = 0
KMD1 261446Z 17014KT 24/19 A3006 RMK A01 T02350191  RH  076%=      5-min Rain = 0
KMD1 261447Z 16014KT 24/19 A3005 RMK A01 T02350192  RH  077%=      5-min Rain = 0
KMD1 261448Z 16012KT 24/19 A3006 RMK A01 T02350191  RH  076%=      5-min Rain = 0
KMD1 261449Z 15015G20KT 24/19 A3005 RMK A01 T02360193  RH  077%=      5-min Rain = 0
KMD1 261450Z 16014KT 24/19 A3005 RMK A01 T02360193  RH  077%=      5-min Rain = 0
KMD1 261451Z 17011KT 24/20 A3005 RMK A01 T02370195  RH  077%=      5-min Rain = 0
KMD1 261452Z 16011G16KT 24/20 A3005 RMK A01 T02370195  RH  077%=      5-min Rain = 0
KMD1 261453Z 16014KT 24/19 A3005 RMK A01 T02380193  RH  076%=      5-min Rain = 0
KMD1 261454Z 17010KT 24/19 A3005 RMK A01 T02370193  RH  076%=      5-min Rain = 0
KMD1 261455Z 15009KT 24/19 A3005 RMK A01 T02370194  RH  077%=      5-min Rain = 0
KMD1 261456Z 16010KT 24/19 A3005 RMK A01 T02370194  RH  077%=      5-min Rain = 0
KMD1 261457Z 16009KT 24/20 A3005 RMK A01 T02380195  RH  077%=      5-min Rain = 0
KMD1 261458Z 16009KT 24/20 A3005 RMK A01 T02390195  RH  077%=      5-min Rain = 0
KMD1 261459Z 16010KT 24/20 A3005 RMK A01 T02390195  RH  076%=      5-min Rain = 0
KMD1 261500Z 17012KT 24/19 A3005 RMK A01 T02390194  RH  076%=      5-min Rain = 0
KMD1 261501Z 16013KT 24/19 A3005 RMK A01 T02390193  RH  076%=      5-min Rain = 0
KMD1 261502Z 16012KT 24/19 A3005 RMK A01 T02380194  RH  076%=      5-min Rain = 0
KMD1 261503Z 17010G15KT 24/19 A3005 RMK A01 T02380194  RH  076%=      5-min Rain = 0
KMD1 261504Z 17010G15KT 24/19 A3005 RMK A01 T02380193  RH  076%=      5-min Rain = 0
KMD1 261505Z 18011G16KT 24/19 A3005 RMK A01 T02380194  RH  076%=      5-min Rain = 0
KMD1 261506Z 17010KT 24/19 A3005 RMK A01 T02370194  RH  077%=      5-min Rain = 0
KMD1 261507Z 17011KT 24/19 A3005 RMK A01 T02370194  RH  077%=      5-min Rain = 0
KMD1 261508Z 16009KT 24/20 A3005 RMK A01 T02380195  RH  077%=      5-min Rain = 0
KMD1 261509Z 17009KT 24/20 A3005 RMK A01 T02370196  RH  078%=      5-min Rain = 0
KMD1 261510Z 17010KT 24/20 A3006 RMK A01 T02380195  RH  077%=      5-min Rain = 0
KMD1 261511Z 15013KT 24/20 A3006 RMK A01 T02380195  RH  077%=      5-min Rain = 0
KMD1 261512Z 17011KT 24/19 A3006 RMK A01 T02370193  RH  077%=      5-min Rain = 0
KMD1 261513Z 16011KT 24/19 A3005 RMK A01 T02360193  RH  077%=      5-min Rain = 0
KMD1 261514Z 15009KT 24/20 A3006 RMK A01 T02370195  RH  077%=      5-min Rain = 0
KMD1 261515Z 16008KT 24/20 A3006 RMK A01 T02370196  RH  078%=      5-min Rain = 0
KMD1 261516Z 16011KT 24/19 A3006 RMK A01 T02370193  RH  076%=      5-min Rain = 0
KMD1 261517Z 16012KT 24/19 A3006 RMK A01 T02370193  RH  076%=      5-min Rain = 0
KMD1 261518Z 15011KT 24/19 A3006 RMK A01 T02370194  RH  077%=      5-min Rain = 0
KMD1 261519Z 16014KT 24/19 A3005 RMK A01 T02370194  RH  077%=      5-min Rain = 0
KMD1 261520Z 16013KT 24/19 A3005 RMK A01 T02370192  RH  076%=      5-min Rain = 0
KMD1 261521Z 16011KT 24/19 A3006 RMK A01 T02380193  RH  076%=      5-min Rain = 0
KMD1 261522Z 16012KT 24/19 A3005 RMK A01 T02380193  RH  076%=      5-min Rain = 0
KMD1 261523Z 15010KT 24/19 A3005 RMK A01 T02380193  RH  076%=      5-min Rain = 0
KMD1 261524Z 16013KT 24/19 A3005 RMK A01 T02380193  RH  076%=      5-min Rain = 0
KMD1 261525Z 16014KT 24/19 A3005 RMK A01 T02380192  RH  075%=      5-min Rain = 0
KMD1 261526Z 16014KT 24/19 A3005 RMK A01 T02380192  RH  076%=      5-min Rain = 0
KMD1 261527Z 15011KT 24/19 A3005 RMK A01 T02380194  RH  076%=      5-min Rain = 0
KMD1 261528Z 15010KT 24/19 A3005 RMK A01 T02390194  RH  076%=      5-min Rain = 0
KMD1 261529Z 16011G16KT 24/20 A3005 RMK A01 T02380195  RH  077%=      5-min Rain = 0
KMD1 261530Z 15013KT 24/19 A3005 RMK A01 T02390194  RH  076%=      5-min Rain = 0
KMD1 261531Z 16013G18KT 24/19 A3005 RMK A01 T02380193  RH  076%=      5-min Rain = 0
KMD1 261532Z 16014KT 24/19 A3005 RMK A01 T02380193  RH  076%=      5-min Rain = 0
KMD1 261533Z 17011KT 24/19 A3005 RMK A01 T02380194  RH  076%=      5-min Rain = 0
KMD1 261534Z 17008KT 24/20 A3005 RMK A01 T02380195  RH  077%=      5-min Rain = 0
KMD1 261535Z 16009G15KT 24/20 A3005 RMK A01 T02380197  RH  077%=      5-min Rain = 0
KMD1 261536Z 16012KT 24/19 A3005 RMK A01 T02380194  RH  076%=      5-min Rain = 0
KMD1 261537Z 16010KT 24/19 A3005 RMK A01 T02370194  RH  076%=      5-min Rain = 0
KMD1 261538Z 15010KT 24/19 A3005 RMK A01 T02370193  RH  076%=      5-min Rain = 0
KMD1 261539Z 16010KT 24/20 A3005 RMK A01 T02380195  RH  077%=      5-min Rain = 0
KMD1 261540Z 15013KT 24/19 A3005 RMK A01 T02370193  RH  076%=      5-min Rain = 0
KMD1 261541Z 17014KT 24/19 A3005 RMK A01 T02370193  RH  076%=      5-min Rain = 0
KMD1 261542Z 18010KT 24/19 A3005 RMK A01 T02370194  RH  077%=      5-min Rain = 0
KMD1 261543Z 17009KT 24/19 A3005 RMK A01 T02370194  RH  077%=      5-min Rain = 0
KMD1 261544Z 17012KT 24/19 A3005 RMK A01 T02370194  RH  077%=      5-min Rain = 0
KMD1 261545Z 17013KT 24/20 A3005 RMK A01 T02370195  RH  077%=      5-min Rain = 0
KMD1 261546Z 17011G16KT 24/19 A3005 RMK A01 T02360194  RH  077%=      5-min Rain = 0
KMD1 261547Z 16010KT 24/20 A3005 RMK A01 T02360195  RH  077%=      5-min Rain = 0
KMD1 261548Z 16010KT 24/20 A3005 RMK A01 T02360196  RH  078%=      5-min Rain = 0
KMD1 261549Z 16010KT 24/20 A3005 RMK A01 T02360195  RH  078%=      5-min Rain = 0
KMD1 261550Z 15012KT 24/19 A3005 RMK A01 T02360194  RH  077%=      5-min Rain = 0
KMD1 261551Z 18011G16KT 24/19 A3006 RMK A01 T02370194  RH  077%=      5-min Rain = 0
KMD1 261552Z 17012KT 24/19 A3006 RMK A01 T02360194  RH  077%=      5-min Rain = 0
KMD1 261553Z 17011KT 24/20 A3006 RMK A01 T02360195  RH  078%=      5-min Rain = 0
KMD1 261554Z 16010KT 24/20 A3006 RMK A01 T02360195  RH  078%=      5-min Rain = 0
KMD1 261555Z 17011KT 24/20 A3006 RMK A01 T02360195  RH  078%=      5-min Rain = 0
KMD1 261556Z 18008KT 24/20 A3006 RMK A01 T02360195  RH  078%=      5-min Rain = 0
KMD1 261557Z 17008KT 24/20 A3006 RMK A01 T02360197  RH  079%=      5-min Rain = 0
KMD1 261558Z 17012KT 24/20 A3006 RMK A01 T02350196  RH  079%=      5-min Rain = 0
KMD1 261559Z 18010KT 24/20 A3006 RMK A01 T02350195  RH  078%=      5-min Rain = 0
KMD1 261600Z 19011KT 24/20 A3006 RMK A01 T02350196  RH  078%=      5-min Rain = 0
KMD1 261601Z 18012KT 24/20 A3006 RMK A01 T02350195  RH  078%=      5-min Rain = 0
KMD1 261602Z 18007KT 24/20 A3006 RMK A01 T02350196  RH  078%=      5-min Rain = 0
KMD1 261603Z 17009KT 24/20 A3006 RMK A01 T02350196  RH  079%=      5-min Rain = 0
KMD1 261604Z 17010KT 24/20 A3006 RMK A01 T02350196  RH  078%=      5-min Rain = 0
KMD1 261605Z 18008KT 24/20 A3006 RMK A01 T02350196  RH  079%=      5-min Rain = 0
KMD1 261606Z 17009KT 24/20 A3006 RMK A01 T02350196  RH  079%=      5-min Rain = 0
KMD1 261607Z 18008KT 24/20 A3006 RMK A01 T02350197  RH  079%=      5-min Rain = 0
KMD1 261608Z 17007KT 24/20 A3006 RMK A01 T02350197  RH  079%=      5-min Rain = 0
KMD1 261609Z 18009KT 24/20 A3006 RMK A01 T02360197  RH  079%=      5-min Rain = 0
KMD1 261610Z 18008KT 24/20 A3006 RMK A01 T02360196  RH  079%=      5-min Rain = 0
KMD1 261611Z 18010KT 24/20 A3006 RMK A01 T02360197  RH  079%=      5-min Rain = 0
KMD1 261612Z 17010KT 24/20 A3006 RMK A01 T02360197  RH  078%=      5-min Rain = 0
KMD1 261613Z 18010KT 24/20 A3006 RMK A01 T02360197  RH  079%=      5-min Rain = 0
KMD1 261614Z 18009KT 24/20 A3006 RMK A01 T02360196  RH  078%=      5-min Rain = 0
KMD1 261615Z 18009KT 24/20 A3006 RMK A01 T02360197  RH  079%=      5-min Rain = 0
KMD1 261616Z 16008KT 24/20 A3006 RMK A01 T02360197  RH  079%=      5-min Rain = 0
KMD1 261617Z 17009KT 24/20 A3006 RMK A01 T02360197  RH  079%=      5-min Rain = 0
KMD1 261618Z 17012KT 24/20 A3006 RMK A01 T02370198  RH  079%=      5-min Rain = 0
KMD1 261619Z 17012KT 24/20 A3006 RMK A01 T02370196  RH  078%=      5-min Rain = 0
KMD1 261620Z 17010KT 24/20 A3006 RMK A01 T02360196  RH  078%=      5-min Rain = 0
KMD1 261621Z 18010KT 24/20 A3006 RMK A01 T02370197  RH  078%=      5-min Rain = 0
KMD1 261622Z 16011KT 24/20 A3006 RMK A01 T02360197  RH  078%=      5-min Rain = 0
KMD1 261623Z 18006KT 24/20 A3006 RMK A01 T02360197  RH  079%=      5-min Rain = 0
KMD1 261624Z 19007KT 24/20 A3006 RMK A01 T02360199  RH  079%=      5-min Rain = 0
KMD1 261625Z 18007KT 24/20 A3006 RMK A01 T02360199  RH  080%=      5-min Rain = 0
KMD1 261626Z 18008KT 24/20 A3006 RMK A01 T02360198  RH  079%=      5-min Rain = 0
KMD1 261627Z 18009KT 24/20 A3006 RMK A01 T02360198  RH  079%=      5-min Rain = 0
KMD1 261628Z 18008KT 24/20 A3006 RMK A01 T02360199  RH  080%=      5-min Rain = 0
KMD1 261629Z 17006KT 24/20 A3006 RMK A01 T02360200  RH  080%=      5-min Rain = 0
KMD1 261630Z 18008KT 24/20 A3006 RMK A01 T02360201  RH  081%=      5-min Rain = 0
KMD1 261631Z 16006KT 24/20 A3006 RMK A01 T02360200  RH  081%=      5-min Rain = 0
KMD1 261632Z 18006KT 24/20 A3006 RMK A01 T02360200  RH  081%=      5-min Rain = 0
KMD1 261633Z 17008KT 24/20 A3006 RMK A01 T02360199  RH  080%=      5-min Rain = 0
KMD1 261634Z 16008KT 24/20 A3006 RMK A01 T02360200  RH  080%=      5-min Rain = 0
KMD1 261635Z 17010KT 24/20 A3006 RMK A01 T02350200  RH  080%=      5-min Rain = 0
KMD1 261636Z 17010KT 24/20 A3006 RMK A01 T02360201  RH  081%=      5-min Rain = 0
KMD1 261637Z 17009KT 24/20 A3006 RMK A01 T02350200  RH  081%=      5-min Rain = 0
KMD1 261638Z 16013KT 24/20 A3006 RMK A01 T02350199  RH  081%=      5-min Rain = 0
KMD1 261639Z 17010KT 24/20 A3006 RMK A01 T02350200  RH  081%=      5-min Rain = 0
KMD1 261640Z 17011KT 24/20 A3006 RMK A01 T02350202  RH  082%=      5-min Rain = 0
KMD1 261641Z 16013KT 24/20 A3006 RMK A01 T02350202  RH  082%=      5-min Rain = 0
KMD1 261642Z 17010KT 23/20 A3006 RMK A01 T02340201  RH  082%=      5-min Rain = 0
KMD1 261643Z 16008KT 23/20 A3006 RMK A01 T02340204  RH  083%=      5-min Rain = 0
KMD1 261644Z 17008KT 24/20 A3006 RMK A01 T02350203  RH  082%=      5-min Rain = 0
KMD1 261645Z 16010KT 24/20 A3006 RMK A01 T02360203  RH  082%=      5-min Rain = 0
KMD1 261646Z 17010KT 24/20 A3006 RMK A01 T02370200  RH  080%=      5-min Rain = 0
KMD1 261647Z 16009KT 24/20 A3006 RMK A01 T02370202  RH  081%=      5-min Rain = 0
KMD1 261648Z 16008KT 24/20 A3006 RMK A01 T02380202  RH  081%=      5-min Rain = 0
KMD1 261649Z 18007KT 24/20 A3006 RMK A01 T02390203  RH  080%=      5-min Rain = 0
KMD1 261650Z 17009KT 24/20 A3006 RMK A01 T02390202  RH  080%=      5-min Rain = 0
KMD1 261651Z 17009G14KT 24/20 A3006 RMK A01 T02400203  RH  080%=      5-min Rain = 0
KMD1 261652Z 17011KT 24/20 A3006 RMK A01 T02410200  RH  078%=      5-min Rain = 0
KMD1 261653Z 17010KT 24/20 A3006 RMK A01 T02410202  RH  079%=      5-min Rain = 0
KMD1 261654Z 16008KT 24/20 A3006 RMK A01 T02410202  RH  079%=      5-min Rain = 0
KMD1 261655Z 17010KT 24/20 A3006 RMK A01 T02410201  RH  079%=      5-min Rain = 0
KMD1 261656Z 15009KT 24/20 A3006 RMK A01 T02410201  RH  079%=      5-min Rain = 0
KMD1 261657Z 16009KT 24/20 A3006 RMK A01 T02400203  RH  079%=      5-min Rain = 0
KMD1 261658Z 17008KT 24/20 A3006 RMK A01 T02410202  RH  079%=      5-min Rain = 0
KMD1 261659Z 16010KT 24/20 A3006 RMK A01 T02400202  RH  079%=      5-min Rain = 0
KMD1 261700Z 16010KT 24/20 A3006 RMK A01 T02400201  RH  079%=      5-min Rain = 0
KMD1 261701Z 16013KT 24/20 A3006 RMK A01 T02400201  RH  078%=      5-min Rain = 0
KMD1 261702Z 16013KT 24/20 A3006 RMK A01 T02400199  RH  078%=      5-min Rain = 0
KMD1 261703Z 17013KT 24/20 A3006 RMK A01 T02400200  RH  078%=      5-min Rain = 0
KMD1 261704Z 16013KT 24/20 A3006 RMK A01 T02410200  RH  078%=      5-min Rain = 0
KMD1 261705Z 17016KT 24/20 A3006 RMK A01 T02410199  RH  077%=      5-min Rain = 0
KMD1 261706Z 14012KT 24/20 A3006 RMK A01 T02410199  RH  078%=      5-min Rain = 0
KMD1 261707Z 15012G17KT 24/20 A3006 RMK A01 T02410202  RH  079%=      5-min Rain = 0
KMD1 261708Z 15013KT 24/20 A3006 RMK A01 T02410199  RH  077%=      5-min Rain = 0
KMD1 261709Z 16012KT 24/20 A3006 RMK A01 T02410199  RH  077%=      5-min Rain = 0
KMD1 261710Z 16011KT 24/20 A3006 RMK A01 T02420200  RH  077%=      5-min Rain = 0
KMD1 261711Z 16012KT 24/20 A3006 RMK A01 T02430201  RH  077%=      5-min Rain = 0
KMD1 261712Z 17010KT 24/20 A3006 RMK A01 T02430201  RH  077%=      5-min Rain = 0
KMD1 261713Z 17009KT 24/20 A3006 RMK A01 T02440201  RH  077%=      5-min Rain = 0
KMD1 261714Z 17010KT 24/20 A3006 RMK A01 T02440200  RH  077%=      5-min Rain = 0
KMD1 261715Z 16008KT 24/20 A3006 RMK A01 T02440200  RH  077%=      5-min Rain = 0
KMD1 261716Z 16009KT 24/20 A3006 RMK A01 T02440203  RH  078%=      5-min Rain = 0
KMD1 261717Z 16010KT 24/20 A3006 RMK A01 T02440202  RH  077%=      5-min Rain = 0
KMD1 261718Z 17008KT 25/20 A3006 RMK A01 T02450202  RH  077%=      5-min Rain = 0
KMD1 261719Z 16009KT 25/20 A3006 RMK A01 T02450202  RH  077%=      5-min Rain = 0
KMD1 261720Z 16011KT 25/20 A3006 RMK A01 T02450202  RH  077%=      5-min Rain = 0
KMD1 261721Z 16012KT 25/20 A3006 RMK A01 T02450201  RH  076%=      5-min Rain = 0
KMD1 261722Z 17014KT 25/20 A3006 RMK A01 T02450199  RH  076%=      5-min Rain = 0
KMD1 261723Z 16014KT 25/20 A3006 RMK A01 T02460200  RH  075%=      5-min Rain = 0
KMD1 261724Z 17013KT 25/20 A3006 RMK A01 T02460199  RH  075%=      5-min Rain = 0
KMD1 261725Z 17011KT 25/20 A3006 RMK A01 T02460200  RH  076%=      5-min Rain = 0
KMD1 261726Z 17010KT 25/20 A3006 RMK A01 T02460202  RH  077%=      5-min Rain = 0
KMD1 261727Z 18013KT 25/20 A3006 RMK A01 T02460200  RH  076%=      5-min Rain = 0
KMD1 261728Z 17010KT 25/20 A3006 RMK A01 T02460200  RH  076%=      5-min Rain = 0
KMD1 261729Z 16009KT 25/20 A3006 RMK A01 T02470204  RH  077%=      5-min Rain = 0
KMD1 261730Z 18009KT 25/20 A3006 RMK A01 T02490204  RH  076%=      5-min Rain = 0
KMD1 261731Z 17007KT 25/21 A3006 RMK A01 T02490205  RH  077%=      5-min Rain = 0
KMD1 261732Z 17008KT 25/21 A3005 RMK A01 T02500205  RH  076%=      5-min Rain = 0
KMD1 261733Z 17008KT 25/21 A3005 RMK A01 T02510205  RH  076%=      5-min Rain = 0
KMD1 261734Z 16008KT 25/21 A3006 RMK A01 T02510206  RH  076%=      5-min Rain = 0
KMD1 261735Z 16010KT 25/20 A3006 RMK A01 T02510204  RH  075%=      5-min Rain = 0
KMD1 261736Z 15010KT 25/21 A3006 RMK A01 T02510205  RH  076%=      5-min Rain = 0
KMD1 261737Z 16010KT 25/21 A3006 RMK A01 T02510206  RH  076%=      5-min Rain = 0
KMD1 261738Z 16011KT 25/20 A3006 RMK A01 T02500204  RH  076%=      5-min Rain = 0
KMD1 261739Z 15010KT 25/21 A3006 RMK A01 T02510206  RH  076%=      5-min Rain = 0
KMD1 261740Z 16009KT 25/21 A3005 RMK A01 T02530211  RH  078%=      5-min Rain = 0
KMD1 261741Z 16011KT 26/21 A3005 RMK A01 T02570210  RH  075%=      5-min Rain = 0
KMD1 261742Z 16009KT 26/21 A3005 RMK A01 T02600207  RH  073%=      5-min Rain = 0
KMD1 261743Z 15010KT 26/21 A3005 RMK A01 T02600206  RH  072%=      5-min Rain = 0
KMD1 261744Z 15010KT 26/21 A3005 RMK A01 T02590205  RH  072%=      5-min Rain = 0
KMD1 261745Z 16011KT 26/21 A3005 RMK A01 T02580206  RH  073%=      5-min Rain = 0
KMD1 261746Z 17011KT 26/21 A3005 RMK A01 T02590205  RH  072%=      5-min Rain = 0
KMD1 261747Z 19008KT 26/21 A3005 RMK A01 T02600205  RH  072%=      5-min Rain = 0
KMD1 261748Z 17010KT 26/21 A3005 RMK A01 T02610208  RH  073%=      5-min Rain = 0
KMD1 261749Z 16011KT 26/21 A3005 RMK A01 T02620205  RH  071%=      5-min Rain = 0
KMD1 261750Z 17012KT 26/20 A3005 RMK A01 T02620204  RH  070%=      5-min Rain = 0
KMD1 261751Z 19017KT 26/20 A3005 RMK A01 T02610202  RH  070%=      5-min Rain = 0
KMD1 261752Z 15013KT 26/20 A3005 RMK A01 T02600204  RH  071%=      5-min Rain = 0
KMD1 261753Z 17014G20KT 26/21 A3005 RMK A01 T02610205  RH  071%=      5-min Rain = 0
KMD1 261754Z 17012G17KT 26/20 A3005 RMK A01 T02630203  RH  070%=      5-min Rain = 0
KMD1 261755Z 16011KT 26/20 A3005 RMK A01 T02630203  RH  070%=      5-min Rain = 0
KMD1 261756Z 17010KT 26/21 A3005 RMK A01 T02640207  RH  071%=      5-min Rain = 0
KMD1 261757Z 17017KT 27/21 A3005 RMK A01 T02650205  RH  069%=      5-min Rain = 0
KMD1 261758Z 17015KT 26/20 A3005 RMK A01 T02640204  RH  069%=      5-min Rain = 0
KMD1 261759Z 16009KT 26/21 A3005 RMK A01 T02630207  RH  071%=      5-min Rain = 0
KMD1 261800Z 16013KT 26/21 A3005 RMK A01 T02640206  RH  070%=      5-min Rain = 0
KMD1 261801Z 16015G20KT 26/21 A3005 RMK A01 T02640205  RH  070%=      5-min Rain = 0
KMD1 261802Z 16013KT 26/20 A3005 RMK A01 T02640204  RH  070%=      5-min Rain = 0
KMD1 261803Z 14011KT 26/21 A3005 RMK A01 T02640209  RH  072%=      5-min Rain = 0
KMD1 261804Z 14011KT 27/21 A3005 RMK A01 T02650209  RH  071%=      5-min Rain = 0
KMD1 261805Z 14012KT 27/21 A3005 RMK A01 T02670214  RH  073%=      5-min Rain = 0
KMD1 261806Z 16013KT 27/21 A3005 RMK A01 T02690211  RH  070%=      5-min Rain = 0
KMD1 261807Z 15013G18KT 27/21 A3004 RMK A01 T02720206  RH  067%=      5-min Rain = 0
KMD1 261808Z 17014KT 27/20 A3004 RMK A01 T02720203  RH  066%=      5-min Rain = 0
KMD1 261809Z 16016KT 27/20 A3004 RMK A01 T02690200  RH  066%=      5-min Rain = 0
KMD1 261810Z 16017KT 27/20 A3004 RMK A01 T02690203  RH  067%=      5-min Rain = 0
KMD1 261811Z 16015KT 27/20 A3004 RMK A01 T02700199  RH  065%=      5-min Rain = 0
KMD1 261812Z 17014G21KT 27/20 A3004 RMK A01 T02700202  RH  066%=      5-min Rain = 0
KMD1 261813Z 16014G19KT 27/20 A3004 RMK A01 T02700202  RH  066%=      5-min Rain = 0
KMD1 261814Z 17017KT 27/20 A3004 RMK A01 T02690199  RH  065%=      5-min Rain = 0
KMD1 261815Z 17019G25KT 27/20 A3004 RMK A01 T02670198  RH  066%=      5-min Rain = 0
KMD1 261816Z 16015KT 27/20 A3004 RMK A01 T02670200  RH  067%=      5-min Rain = 0
KMD1 261817Z 16017KT 27/20 A3004 RMK A01 T02690200  RH  066%=      5-min Rain = 0
KMD1 261818Z 17018G23KT 27/20 A3004 RMK A01 T02710196  RH  064%=      5-min Rain = 0
KMD1 261819Z 17015KT 27/20 A3004 RMK A01 T02720199  RH  064%=      5-min Rain = 0
KMD1 261820Z 17014G21KT 28/20 A3004 RMK A01 T02750200  RH  064%=      5-min Rain = 0
KMD1 261821Z 18018G24KT 28/20 A3004 RMK A01 T02780198  RH  062%=      5-min Rain = 0
KMD1 261822Z 17018KT 28/20 A3004 RMK A01 T02780196  RH  061%=      5-min Rain = 0
KMD1 261823Z 17015KT 28/20 A3004 RMK A01 T02770198  RH  062%=      5-min Rain = 0
KMD1 261824Z 18018G24KT 28/20 A3004 RMK A01 T02770197  RH  062%=      5-min Rain = 0
KMD1 261825Z 18015KT 28/20 A3004 RMK A01 T02760200  RH  063%=      5-min Rain = 0
KMD1 261826Z 18015KT 28/20 A3004 RMK A01 T02750198  RH  063%=      5-min Rain = 0
KMD1 261827Z 18017G23KT 28/20 A3004 RMK A01 T02750197  RH  063%=      5-min Rain = 0
KMD1 261828Z 18016KT 27/20 A3004 RMK A01 T02730195  RH  062%=      5-min Rain = 0
KMD1 261829Z 18014G19KT 27/20 A3004 RMK A01 T02720197  RH  064%=      5-min Rain = 0
KMD1 261830Z 18016KT 27/20 A3004 RMK A01 T02710196  RH  063%=      5-min Rain = 0
KMD1 261831Z 18014KT 27/20 A3004 RMK A01 T02710195  RH  063%=      5-min Rain = 0
KMD1 261832Z 18015G20KT 27/20 A3004 RMK A01 T02710197  RH  064%=      5-min Rain = 0
KMD1 261833Z 18014KT 27/20 A3004 RMK A01 T02710196  RH  064%=      5-min Rain = 0
KMD1 261834Z 16015G22KT 27/20 A3004 RMK A01 T02700200  RH  066%=      5-min Rain = 0
KMD1 261835Z 15018KT 27/20 A3004 RMK A01 T02710197  RH  064%=      5-min Rain = 0
KMD1 261836Z 15016KT 27/20 A3004 RMK A01 T02720197  RH  063%=      5-min Rain = 0
KMD1 261837Z 16020G25KT 27/19 A3004 RMK A01 T02730194  RH  062%=      5-min Rain = 0
KMD1 261838Z 16018G23KT 27/19 A3004 RMK A01 T02730193  RH  062%=      5-min Rain = 0
KMD1 261839Z 16015KT 27/20 A3003 RMK A01 T02730196  RH  063%=      5-min Rain = 0
KMD1 261840Z 16012KT 27/20 A3003 RMK A01 T02740198  RH  063%=      5-min Rain = 0
KMD1 261841Z 16012G17KT 28/20 A3004 RMK A01 T02780202  RH  063%=      5-min Rain = 0
KMD1 261842Z 18013G20KT 28/20 A3004 RMK A01 T02800201  RH  062%=      5-min Rain = 0
KMD1 261843Z 17015G21KT 28/20 A3003 RMK A01 T02800200  RH  062%=      5-min Rain = 0
KMD1 261844Z 16012KT 28/20 A3003 RMK A01 T02790200  RH  062%=      5-min Rain = 0
KMD1 261845Z 15013G18KT 28/21 A3003 RMK A01 T02790205  RH  064%=      5-min Rain = 0
KMD1 261846Z 15016KT 28/20 A3003 RMK A01 T02790203  RH  063%=      5-min Rain = 0
KMD1 261847Z 15015KT 28/20 A3003 RMK A01 T02790202  RH  063%=      5-min Rain = 0
KMD1 261848Z 15016KT 28/20 A3003 RMK A01 T02790201  RH  063%=      5-min Rain = 0
KMD1 261849Z 15017KT 28/20 A3003 RMK A01 T02790200  RH  062%=      5-min Rain = 0
KMD1 261850Z 15015G20KT 28/20 A3003 RMK A01 T02790201  RH  062%=      5-min Rain = 0
KMD1 261851Z 15016KT 28/20 A3003 RMK A01 T02810202  RH  062%=      5-min Rain = 0
KMD1 261852Z 17017G24KT 28/20 A3003 RMK A01 T02820201  RH  062%=      5-min Rain = 0
KMD1 261853Z 16017G24KT 28/20 A3003 RMK A01 T02820199  RH  061%=      5-min Rain = 0
KMD1 261854Z 16018KT 28/20 A3002 RMK A01 T02820196  RH  060%=      5-min Rain = 0
KMD1 261855Z 17013KT 28/20 A3003 RMK A01 T02810198  RH  061%=      5-min Rain = 0
KMD1 261856Z 16018G23KT 28/20 A3002 RMK A01 T02810195  RH  060%=      5-min Rain = 0
KMD1 261857Z 15019G25KT 28/19 A3002 RMK A01 T02780191  RH  059%=      5-min Rain = 0
KMD1 261858Z 16016G21KT 28/19 A3002 RMK A01 T02760194  RH  061%=      5-min Rain = 0
KMD1 261859Z 16017KT 28/19 A3002 RMK A01 T02760191  RH  060%=      5-min Rain = 0
KMD1 261900Z 15017G23KT 28/19 A3002 RMK A01 T02750190  RH  060%=      5-min Rain = 0
KMD1 261901Z 15016KT 28/19 A3002 RMK A01 T02760191  RH  060%=      5-min Rain = 0
KMD1 261902Z 15019KT 28/19 A3002 RMK A01 T02760191  RH  060%=      5-min Rain = 0
KMD1 261903Z 15017G22KT 28/20 A3002 RMK A01 T02780195  RH  061%=      5-min Rain = 0
KMD1 261904Z 14018KT 28/20 A3002 RMK A01 T02820195  RH  059%=      5-min Rain = 0
KMD1 261905Z 14019KT 28/20 A3002 RMK A01 T02810196  RH  060%=      5-min Rain = 0
KMD1 261906Z 16018G24KT 28/19 A3002 RMK A01 T02800194  RH  059%=      5-min Rain = 0
KMD1 261907Z 15022G27KT 28/19 A3002 RMK A01 T02800190  RH  058%=      5-min Rain = 0
KMD1 261908Z 15017G22KT 28/19 A3002 RMK A01 T02800194  RH  060%=      5-min Rain = 0
KMD1 261909Z 15018KT 28/20 A3002 RMK A01 T02810196  RH  060%=      5-min Rain = 0
KMD1 261910Z 17014G21KT 28/20 A3002 RMK A01 T02820197  RH  060%=      5-min Rain = 0
KMD1 261911Z 16017KT 28/19 A3002 RMK A01 T02830194  RH  059%=      5-min Rain = 0
KMD1 261912Z 16017KT 28/20 A3002 RMK A01 T02840197  RH  060%=      5-min Rain = 0
KMD1 261913Z 16014KT 29/19 A3002 RMK A01 T02860194  RH  058%=      5-min Rain = 0
KMD1 261914Z 15018KT 29/20 A3002 RMK A01 T02850196  RH  059%=      5-min Rain = 0
KMD1 261915Z 16017KT 29/19 A3002 RMK A01 T02850193  RH  058%=      5-min Rain = 0
KMD1 261916Z 16017KT 28/19 A3002 RMK A01 T02840193  RH  058%=      5-min Rain = 0
KMD1 261917Z 15018KT 28/19 A3002 RMK A01 T02840192  RH  058%=      5-min Rain = 0
KMD1 261918Z 16019KT 29/19 A3002 RMK A01 T02850192  RH  057%=      5-min Rain = 0
KMD1 261919Z 15015KT 28/20 A3002 RMK A01 T02840196  RH  059%=      5-min Rain = 0
KMD1 261920Z 17015G20KT 29/19 A3002 RMK A01 T02850194  RH  058%=      5-min Rain = 0
KMD1 261921Z 16015KT 29/20 A3002 RMK A01 T02850195  RH  058%=      5-min Rain = 0
KMD1 261922Z 16013G18KT 28/20 A3002 RMK A01 T02840197  RH  059%=      5-min Rain = 0
KMD1 261923Z 15017KT 28/19 A3002 RMK A01 T02830193  RH  058%=      5-min Rain = 0
KMD1 261924Z 14013KT 28/20 A3002 RMK A01 T02810195  RH  060%=      5-min Rain = 0
KMD1 261925Z 15011KT 28/20 A3002 RMK A01 T02790197  RH  061%=      5-min Rain = 0
KMD1 261926Z 15017KT 28/19 A3002 RMK A01 T02780192  RH  060%=      5-min Rain = 0
KMD1 261927Z 15014KT 28/19 A3002 RMK A01 T02770192  RH  060%=      5-min Rain = 0
KMD1 261928Z 16014KT 28/19 A3002 RMK A01 T02770192  RH  060%=      5-min Rain = 0
KMD1 261929Z 16012KT 28/20 A3002 RMK A01 T02780196  RH  061%=      5-min Rain = 0
KMD1 261930Z 17012KT 28/20 A3002 RMK A01 T02810196  RH  060%=      5-min Rain = 0
KMD1 261931Z 17013KT 28/19 A3002 RMK A01 T02840194  RH  058%=      5-min Rain = 0
KMD1 261932Z 17016KT 28/19 A3002 RMK A01 T02840192  RH  057%=      5-min Rain = 0
KMD1 261933Z 17015KT 28/19 A3002 RMK A01 T02840191  RH  057%=      5-min Rain = 0
KMD1 261934Z 16017KT 28/19 A3001 RMK A01 T02840188  RH  056%=      5-min Rain = 0
KMD1 261935Z 16017KT 28/19 A3002 RMK A01 T02830190  RH  057%=      5-min Rain = 0
KMD1 261936Z 16013G19KT 28/19 A3001 RMK A01 T02830191  RH  057%=      5-min Rain = 0
KMD1 261937Z 17014KT 28/19 A3001 RMK A01 T02830190  RH  057%=      5-min Rain = 0
KMD1 261938Z 17017G22KT 28/19 A3001 RMK A01 T02840190  RH  057%=      5-min Rain = 0
KMD1 261939Z 16018KT 28/19 A3001 RMK A01 T02840188  RH  056%=      5-min Rain = 0
KMD1 261940Z 16018KT 28/19 A3001 RMK A01 T02830187  RH  056%=      5-min Rain = 0
KMD1 261941Z 16018KT 28/19 A3001 RMK A01 T02830189  RH  057%=      5-min Rain = 0
KMD1 261942Z 15015KT 28/19 A3001 RMK A01 T02820189  RH  057%=      5-min Rain = 0
KMD1 261943Z 15014KT 28/19 A3001 RMK A01 T02830191  RH  057%=      5-min Rain = 0
KMD1 261944Z 15014G19KT 28/20 A3001 RMK A01 T02830195  RH  059%=      5-min Rain = 0
KMD1 261945Z 15015KT 28/19 A3001 RMK A01 T02840192  RH  057%=      5-min Rain = 0
KMD1 261946Z 15014G19KT 29/20 A3001 RMK A01 T02850195  RH  058%=      5-min Rain = 0
KMD1 261947Z 16014KT 29/20 A3001 RMK A01 T02850195  RH  058%=      5-min Rain = 0
KMD1 261948Z 17016KT 29/19 A3001 RMK A01 T02860190  RH  056%=      5-min Rain = 0
KMD1 261949Z 16013KT 29/19 A3001 RMK A01 T02880193  RH  057%=      5-min Rain = 0
KMD1 261950Z 17013G18KT 29/20 A3001 RMK A01 T02910198  RH  057%=      5-min Rain = 0
KMD1 261951Z 15018KT 29/20 A3001 RMK A01 T02940198  RH  056%=      5-min Rain = 0
KMD1 261952Z 16017KT 30/20 A3001 RMK A01 T02950195  RH  055%=      5-min Rain = 0
KMD1 261953Z 16016KT 30/19 A3001 RMK A01 T02950194  RH  055%=      5-min Rain = 0
KMD1 261954Z 17018KT 29/19 A3001 RMK A01 T02930194  RH  055%=      5-min Rain = 0
KMD1 261955Z 17016KT 29/19 A3001 RMK A01 T02910194  RH  056%=      5-min Rain = 0
KMD1 261956Z 16017KT 29/20 A3001 RMK A01 T02900197  RH  057%=      5-min Rain = 0
KMD1 261957Z 14017G22KT 29/20 A3001 RMK A01 T02870198  RH  058%=      5-min Rain = 0
KMD1 261958Z 14015KT 28/20 A3001 RMK A01 T02840197  RH  059%=      5-min Rain = 0
KMD1 261959Z 15013KT 28/20 A3001 RMK A01 T02830197  RH  060%=      5-min Rain = 0
KMD1 262000Z 16012G17KT 28/20 A3001 RMK A01 T02840198  RH  060%=      5-min Rain = 0
KMD1 262001Z 16012G17KT 29/20 A3001 RMK A01 T02870197  RH  058%=      5-min Rain = 0
KMD1 262002Z 16015KT 29/19 A3001 RMK A01 T02880190  RH  055%=      5-min Rain = 0
KMD1 262003Z 16014KT 29/19 A3001 RMK A01 T02870189  RH  055%=      5-min Rain = 0
KMD1 262004Z 16012KT 29/19 A3001 RMK A01 T02860192  RH  057%=      5-min Rain = 0
KMD1 262005Z 16016KT 29/19 A3001 RMK A01 T02850191  RH  057%=      5-min Rain = 0
KMD1 262006Z 16016KT 29/19 A3001 RMK A01 T02850187  RH  055%=      5-min Rain = 0
KMD1 262007Z 16015KT 28/19 A3001 RMK A01 T02840189  RH  056%=      5-min Rain = 0
KMD1 262008Z 17017KT 29/19 A3001 RMK A01 T02850188  RH  056%=      5-min Rain = 0
KMD1 262009Z 17014G23KT 29/19 A3001 RMK A01 T02850191  RH  057%=      5-min Rain = 0
KMD1 262010Z 17016G21KT 29/19 A3001 RMK A01 T02850191  RH  057%=      5-min Rain = 0
KMD1 262011Z 16015G20KT 29/19 A3001 RMK A01 T02870190  RH  056%=      5-min Rain = 0
KMD1 262012Z 17014G19KT 29/19 A3001 RMK A01 T02890191  RH  055%=      5-min Rain = 0
KMD1 262013Z 17017G24KT 29/19 A3001 RMK A01 T02900191  RH  055%=      5-min Rain = 0
KMD1 262014Z 17015G23KT 29/19 A3001 RMK A01 T02900189  RH  054%=      5-min Rain = 0
KMD1 262015Z 16018G23KT 29/19 A3001 RMK A01 T02900186  RH  054%=      5-min Rain = 0
KMD1 262016Z 15019G24KT 29/19 A3001 RMK A01 T02880187  RH  054%=      5-min Rain = 0
KMD1 262017Z 15016G21KT 29/19 A3001 RMK A01 T02860186  RH  055%=      5-min Rain = 0
KMD1 262018Z 15016G23KT 29/19 A3001 RMK A01 T02850188  RH  056%=      5-min Rain = 0
KMD1 262019Z 14019KT 29/19 A3001 RMK A01 T02850190  RH  056%=      5-min Rain = 0
KMD1 262020Z 16017KT 29/19 A3001 RMK A01 T02860191  RH  056%=      5-min Rain = 0
KMD1 262021Z 16017KT 29/19 A3001 RMK A01 T02890191  RH  055%=      5-min Rain = 0
KMD1 262022Z 17017KT 29/19 A3001 RMK A01 T02910189  RH  054%=      5-min Rain = 0
KMD1 262023Z 17014KT 29/19 A3001 RMK A01 T02910193  RH  056%=      5-min Rain = 0
KMD1 262024Z 17014G20KT 29/19 A3001 RMK A01 T02930194  RH  055%=      5-min Rain = 0
KMD1 262025Z 17016KT 29/19 A3001 RMK A01 T02930192  RH  054%=      5-min Rain = 0
KMD1 262026Z 17014KT 29/20 A3001 RMK A01 T02940197  RH  056%=      5-min Rain = 0
KMD1 262027Z 16015KT 30/20 A3001 RMK A01 T02950195  RH  055%=      5-min Rain = 0
KMD1 262028Z 16017KT 30/20 A3001 RMK A01 T02950195  RH  055%=      5-min Rain = 0
KMD1 262029Z 17014KT 29/20 A3001 RMK A01 T02940196  RH  056%=      5-min Rain = 0
KMD1 262030Z 16013KT 29/20 A3001 RMK A01 T02930196  RH  056%=      5-min Rain = 0
KMD1 262031Z 16017G23KT 29/20 A3001 RMK A01 T02930195  RH  056%=      5-min Rain = 0
KMD1 262032Z 15016G22KT 29/20 A3001 RMK A01 T02930195  RH  055%=      5-min Rain = 0
KMD1 262033Z 17016KT 29/19 A3001 RMK A01 T02920192  RH  055%=      5-min Rain = 0
KMD1 262034Z 16017G22KT 29/19 A3001 RMK A01 T02930188  RH  053%=      5-min Rain = 0
KMD1 262035Z 17017KT 29/19 A3001 RMK A01 T02940187  RH  052%=      5-min Rain = 0
KMD1 262036Z 18018KT 29/19 A3001 RMK A01 T02920189  RH  054%=      5-min Rain = 0
KMD1 262037Z 17014KT 29/19 A30 RMK A01 T02910188  RH  054%=      5-min Rain = 0
KMD1 262038Z 17016KT 29/19 A30 RMK A01 T02910191  RH  055%=      5-min Rain = 0
KMD1 262039Z 16019KT 29/19 A30 RMK A01 T02920187  RH  053%=      5-min Rain = 0
KMD1 262040Z 18016G21KT 29/19 A30 RMK A01 T02920187  RH  053%=      5-min Rain = 0
KMD1 262041Z 17016KT 29/19 A30 RMK A01 T02910190  RH  054%=      5-min Rain = 0
KMD1 262042Z 16016KT 29/19 A30 RMK A01 T02910187  RH  053%=      5-min Rain = 0
KMD1 262043Z 18016G21KT 29/19 A3001 RMK A01 T02920189  RH  054%=      5-min Rain = 0
KMD1 262044Z 18020KT 29/19 A3001 RMK A01 T02920185  RH  052%=      5-min Rain = 0
KMD1 262045Z 18018KT 29/19 A3001 RMK A01 T02920185  RH  052%=      5-min Rain = 0
KMD1 262046Z 17015KT 29/19 A3001 RMK A01 T02920188  RH  054%=      5-min Rain = 0
KMD1 262047Z 17015KT 29/19 A3001 RMK A01 T02930188  RH  053%=      5-min Rain = 0
KMD1 262048Z 17015KT 29/19 A3001 RMK A01 T02930186  RH  052%=      5-min Rain = 0
KMD1 262049Z 17018KT 29/19 A3001 RMK A01 T02940187  RH  053%=      5-min Rain = 0
KMD1 262050Z 16018KT 29/19 A30 RMK A01 T02940185  RH  052%=      5-min Rain = 0
KMD1 262051Z 16014KT 29/19 A30 RMK A01 T02930188  RH  053%=      5-min Rain = 0
KMD1 262052Z 16013KT 29/19 A30 RMK A01 T02930188  RH  053%=      5-min Rain = 0
KMD1 262053Z 17009KT 29/19 A30 RMK A01 T02930189  RH  053%=      5-min Rain = 0
KMD1 262054Z 17009KT 29/19 A30 RMK A01 T02930194  RH  055%=      5-min Rain = 0
KMD1 262055Z 17011KT 29/19 A3001 RMK A01 T02940192  RH  054%=      5-min Rain = 0
KMD1 262056Z 18014KT 30/19 A3001 RMK A01 T02950191  RH  053%=      5-min Rain = 0
KMD1 262057Z 18017KT 30/18 A30 RMK A01 T02950184  RH  051%=      5-min Rain = 0
KMD1 262058Z 17013KT 29/18 A30 RMK A01 T02930181  RH  051%=      5-min Rain = 0
KMD1 262059Z 19010KT 29/19 A30 RMK A01 T02920189  RH  054%=      5-min Rain = 0
KMD1 262100Z 18014G19KT 29/19 A30 RMK A01 T02920189  RH  054%=      5-min Rain = 0
KMD1 262101Z 17012G17KT 29/19 A30 RMK A01 T02910188  RH  054%=      5-min Rain = 0
KMD1 262102Z 18011G19KT 29/19 A30 RMK A01 T02910191  RH  055%=      5-min Rain = 0
KMD1 262103Z 18016KT 29/19 A30 RMK A01 T02910188  RH  054%=      5-min Rain = 0
KMD1 262104Z 19015G20KT 29/19 A30 RMK A01 T02900186  RH  053%=      5-min Rain = 0
KMD1 262105Z 17015KT 29/19 A30 RMK A01 T02890186  RH  054%=      5-min Rain = 0
KMD1 262106Z 18014KT 29/19 A30 RMK A01 T02890186  RH  054%=      5-min Rain = 0
KMD1 262107Z 18012KT 29/19 A30 RMK A01 T02890188  RH  054%=      5-min Rain = 0
KMD1 262108Z 17013KT 29/19 A30 RMK A01 T02890186  RH  054%=      5-min Rain = 0
KMD1 262109Z 18015KT 29/19 A30 RMK A01 T02900186  RH  054%=      5-min Rain = 0
KMD1 262110Z 17014KT 29/19 A30 RMK A01 T02900189  RH  054%=      5-min Rain = 0
KMD1 262111Z 17014G19KT 29/19 A30 RMK A01 T02900188  RH  054%=      5-min Rain = 0
KMD1 262112Z 18013G18KT 29/19 A30 RMK A01 T02900186  RH  053%=      5-min Rain = 0
KMD1 262113Z 18013G18KT 29/19 A30 RMK A01 T02900188  RH  054%=      5-min Rain = 0
KMD1 262114Z 17012KT 29/19 A30 RMK A01 T02900189  RH  055%=      5-min Rain = 0
KMD1 262115Z 17010KT 29/19 A30 RMK A01 T02890189  RH  055%=      5-min Rain = 0
KMD1 262116Z 16014KT 29/19 A30 RMK A01 T02890187  RH  054%=      5-min Rain = 0
KMD1 262117Z 17015KT 29/19 A30 RMK A01 T02890185  RH  053%=      5-min Rain = 0
KMD1 262118Z 17012KT 29/19 A30 RMK A01 T02890188  RH  054%=      5-min Rain = 0
KMD1 262119Z 18011KT 29/19 A30 RMK A01 T02890187  RH  054%=      5-min Rain = 0
KMD1 262120Z 18014KT 29/19 A30 RMK A01 T02880186  RH  054%=      5-min Rain = 0
KMD1 262121Z 17010KT 29/19 A30 RMK A01 T02870189  RH  055%=      5-min Rain = 0
KMD1 262122Z 16015KT 29/19 A30 RMK A01 T02870187  RH  055%=      5-min Rain = 0
KMD1 262123Z 17013KT 29/19 A30 RMK A01 T02870188  RH  055%=      5-min Rain = 0
KMD1 262124Z 17013KT 29/19 A30 RMK A01 T02870187  RH  054%=      5-min Rain = 0
KMD1 262125Z 18012KT 29/19 A30 RMK A01 T02870187  RH  054%=      5-min Rain = 0
KMD1 262126Z 18011KT 29/19 A30 RMK A01 T02870186  RH  054%=      5-min Rain = 0
KMD1 262127Z 17010KT 29/19 A30 RMK A01 T02880188  RH  055%=      5-min Rain = 0
KMD1 262128Z 16012KT 29/19 A30 RMK A01 T02880186  RH  054%=      5-min Rain = 0
KMD1 262129Z 16013KT 29/19 A30 RMK A01 T02880186  RH  054%=      5-min Rain = 0
KMD1 262130Z 17012KT 29/19 A30 RMK A01 T02880185  RH  054%=      5-min Rain = 0
KMD1 262131Z 16009KT 29/19 A30 RMK A01 T02880187  RH  054%=      5-min Rain = 0
KMD1 262132Z 18010KT 29/19 A30 RMK A01 T02880189  RH  055%=      5-min Rain = 0
KMD1 262133Z 17009KT 29/19 A30 RMK A01 T02880189  RH  055%=      5-min Rain = 0
KMD1 262134Z 17009KT 29/19 A30 RMK A01 T02880190  RH  056%=      5-min Rain = 0
KMD1 262135Z 15009KT 29/19 A30 RMK A01 T02880194  RH  057%=      5-min Rain = 0
KMD1 262136Z 15010KT 29/19 A30 RMK A01 T02880193  RH  057%=      5-min Rain = 0
KMD1 262137Z 16008G13KT 29/19 A30 RMK A01 T02880193  RH  057%=      5-min Rain = 0
KMD1 262138Z 17014KT 29/19 A30 RMK A01 T02880191  RH  056%=      5-min Rain = 0
KMD1 262139Z 18012KT 29/19 A2999 RMK A01 T02880189  RH  055%=      5-min Rain = 0
KMD1 262140Z 17010KT 29/19 A2999 RMK A01 T02890187  RH  054%=      5-min Rain = 0
KMD1 262141Z 17009KT 29/19 A2999 RMK A01 T02880193  RH  056%=      5-min Rain = 0
KMD1 262142Z 17010KT 29/19 A2999 RMK A01 T02880192  RH  056%=      5-min Rain = 0
KMD1 262143Z 17011KT 29/19 A2999 RMK A01 T02880190  RH  056%=      5-min Rain = 0
KMD1 262144Z 17009KT 29/19 A2999 RMK A01 T02880192  RH  056%=      5-min Rain = 0
KMD1 262145Z 17010G15KT 29/19 A2999 RMK A01 T02880194  RH  057%=      5-min Rain = 0
KMD1 262146Z 17013KT 29/19 A2999 RMK A01 T02880192  RH  056%=      5-min Rain = 0
KMD1 262147Z 16011KT 29/19 A2999 RMK A01 T02880191  RH  056%=      5-min Rain = 0
KMD1 262148Z 16014KT 29/19 A2999 RMK A01 T02880192  RH  056%=      5-min Rain = 0
KMD1 262149Z 17013KT 29/19 A2999 RMK A01 T02890191  RH  055%=      5-min Rain = 0
KMD1 262150Z 14012KT 29/19 A2999 RMK A01 T02900194  RH  056%=      5-min Rain = 0
KMD1 262151Z 15013KT 29/20 A2999 RMK A01 T02900197  RH  057%=      5-min Rain = 0
KMD1 262152Z 16013KT 29/20 A2999 RMK A01 T02900197  RH  057%=      5-min Rain = 0
KMD1 262153Z 16012KT 29/19 A2999 RMK A01 T02920193  RH  055%=      5-min Rain = 0
KMD1 262154Z 17013KT 29/19 A2999 RMK A01 T02920194  RH  055%=      5-min Rain = 0
KMD1 262155Z 16013KT 29/19 A2999 RMK A01 T02910194  RH  056%=      5-min Rain = 0
KMD1 262156Z 17015KT 29/19 A2999 RMK A01 T02920193  RH  055%=      5-min Rain = 0
KMD1 262157Z 17017KT 29/19 A2999 RMK A01 T02920193  RH  055%=      5-min Rain = 0
KMD1 262158Z 16016KT 29/19 A2999 RMK A01 T02940190  RH  053%=      5-min Rain = 0
KMD1 262159Z 16012KT 29/19 A2999 RMK A01 T02940190  RH  054%=      5-min Rain = 0
KMD1 262200Z 16012G17KT 29/20 A2999 RMK A01 T02940195  RH  055%=      5-min Rain = 0
KMD1 262201Z 16015KT 30/19 A2998 RMK A01 T02950192  RH  054%=      5-min Rain = 0
KMD1 262202Z 16016KT 30/19 A2998 RMK A01 T02950190  RH  053%=      5-min Rain = 0
KMD1 262203Z 16013KT 29/19 A2998 RMK A01 T02940192  RH  054%=      5-min Rain = 0
KMD1 262204Z 17013KT 29/19 A2998 RMK A01 T02940193  RH  055%=      5-min Rain = 0
KMD1 262205Z 17013KT 29/19 A2998 RMK A01 T02930193  RH  055%=      5-min Rain = 0
KMD1 262206Z 17013G18KT 29/19 A2998 RMK A01 T02930192  RH  054%=      5-min Rain = 0
KMD1 262207Z 19011KT 29/19 A2998 RMK A01 T02940194  RH  055%=      5-min Rain = 0
KMD1 262208Z 18013KT 30/20 A2998 RMK A01 T02950196  RH  055%=      5-min Rain = 0
KMD1 262209Z 17013KT 30/20 A2998 RMK A01 T02950196  RH  055%=      5-min Rain = 0
KMD1 262210Z 18011KT 30/19 A2998 RMK A01 T02960194  RH  054%=      5-min Rain = 0
KMD1 262211Z 18012KT 30/19 A2998 RMK A01 T02950194  RH  055%=      5-min Rain = 0
KMD1 262212Z 17011KT 29/19 A2998 RMK A01 T02940194  RH  055%=      5-min Rain = 0
KMD1 262213Z 16011KT 29/20 A2998 RMK A01 T02940199  RH  057%=      5-min Rain = 0
KMD1 262214Z 17011KT 29/19 A2998 RMK A01 T02940194  RH  055%=      5-min Rain = 0
KMD1 262215Z 17010G15KT 29/20 A2998 RMK A01 T02930196  RH  056%=      5-min Rain = 0
KMD1 262216Z 18009G15KT 29/20 A2998 RMK A01 T02920200  RH  057%=      5-min Rain = 0
KMD1 262217Z 17012KT 29/20 A2998 RMK A01 T02920195  RH  056%=      5-min Rain = 0
KMD1 262218Z 16014G19KT 29/19 A2998 RMK A01 T02910190  RH  054%=      5-min Rain = 0
KMD1 262219Z 16014G19KT 29/19 A2998 RMK A01 T02920188  RH  054%=      5-min Rain = 0
KMD1 262220Z 16011KT 29/19 A2998 RMK A01 T02930189  RH  054%=      5-min Rain = 0
KMD1 262221Z 17015G20KT 29/19 A2998 RMK A01 T02940190  RH  054%=      5-min Rain = 0
KMD1 262222Z 17015KT 30/19 A2998 RMK A01 T02960191  RH  053%=      5-min Rain = 0
KMD1 262223Z 17014KT 30/19 A2998 RMK A01 T02960192  RH  054%=      5-min Rain = 0
KMD1 262224Z 16011KT 30/19 A2998 RMK A01 T02960193  RH  054%=      5-min Rain = 0
KMD1 262225Z 16011KT 30/20 A2998 RMK A01 T02980195  RH  054%=      5-min Rain = 0
KMD1 262226Z 16011G18KT 30/20 A2998 RMK A01 T02990196  RH  054%=      5-min Rain = 0
KMD1 262227Z 16012G17KT 30/19 A2998 RMK A01 T03000192  RH  053%=      5-min Rain = 0
KMD1 262228Z 16012G17KT 30/20 A2998 RMK A01 T02990198  RH  054%=      5-min Rain = 0
KMD1 262229Z 17014KT 30/19 A2998 RMK A01 T03000193  RH  053%=      5-min Rain = 0
KMD1 262230Z 17013KT 30/19 A2998 RMK A01 T02990194  RH  053%=      5-min Rain = 0
KMD1 262231Z 17015G20KT 30/19 A2998 RMK A01 T02970193  RH  054%=      5-min Rain = 0
KMD1 262232Z 17016G21KT 30/19 A2997 RMK A01 T02960190  RH  053%=      5-min Rain = 0
KMD1 262233Z 17014KT 29/19 A2997 RMK A01 T02940190  RH  053%=      5-min Rain = 0
KMD1 262234Z 17016KT 29/19 A2997 RMK A01 T02930190  RH  054%=      5-min Rain = 0
KMD1 262235Z 17016G21KT 29/19 A2997 RMK A01 T02930189  RH  054%=      5-min Rain = 0
KMD1 262236Z 17015KT 29/19 A2997 RMK A01 T02920188  RH  053%=      5-min Rain = 0
KMD1 262237Z 17016G21KT 29/19 A2997 RMK A01 T02910188  RH  054%=      5-min Rain = 0
KMD1 262238Z 17017KT 29/19 A2996 RMK A01 T02920187  RH  053%=      5-min Rain = 0
KMD1 262239Z 17012KT 29/19 A2997 RMK A01 T02920190  RH  054%=      5-min Rain = 0
KMD1 262240Z 17015KT 29/19 A2997 RMK A01 T02920192  RH  055%=      5-min Rain = 0
KMD1 262241Z 16013KT 29/19 A2997 RMK A01 T02920190  RH  054%=      5-min Rain = 0
KMD1 262242Z 17014KT 29/19 A2997 RMK A01 T02910189  RH  054%=      5-min Rain = 0
KMD1 262243Z 16011KT 29/19 A2997 RMK A01 T02910192  RH  055%=      5-min Rain = 0
KMD1 262244Z 16014KT 29/19 A2997 RMK A01 T02910190  RH  055%=      5-min Rain = 0
KMD1 262245Z 14012KT 29/19 A2997 RMK A01 T02910193  RH  056%=      5-min Rain = 0
KMD1 262246Z 14012KT 29/20 A2997 RMK A01 T02880195  RH  057%=      5-min Rain = 0
KMD1 262247Z 15014KT 29/19 A2997 RMK A01 T02860193  RH  057%=      5-min Rain = 0
KMD1 262248Z 15015KT 29/19 A2996 RMK A01 T02860191  RH  056%=      5-min Rain = 0
KMD1 262249Z 16014KT 29/19 A2996 RMK A01 T02860189  RH  056%=      5-min Rain = 0
KMD1 262250Z 16015KT 29/19 A2996 RMK A01 T02880187  RH  055%=      5-min Rain = 0
KMD1 262251Z 16016KT 29/19 A2996 RMK A01 T02880187  RH  054%=      5-min Rain = 0
KMD1 262252Z 15016KT 29/19 A2996 RMK A01 T02890185  RH  053%=      5-min Rain = 0
KMD1 262253Z 16018KT 29/19 A2996 RMK A01 T02890185  RH  053%=      5-min Rain = 0
KMD1 262254Z 14015G20KT 29/19 A2996 RMK A01 T02900187  RH  054%=      5-min Rain = 0
KMD1 262255Z 16012KT 29/19 A2996 RMK A01 T02890188  RH  054%=      5-min Rain = 0
KMD1 262256Z 16013KT 29/19 A2996 RMK A01 T02890185  RH  054%=      5-min Rain = 0
KMD1 262257Z 16013KT 29/19 A2996 RMK A01 T02890186  RH  054%=      5-min Rain = 0
KMD1 262258Z 16012KT 29/19 A2996 RMK A01 T02900191  RH  055%=      5-min Rain = 0
KMD1 262259Z 15010KT 29/19 A2996 RMK A01 T02900191  RH  055%=      5-min Rain = 0
KMD1 262300Z 14011KT 29/20 A2996 RMK A01 T02900196  RH  057%=      5-min Rain = 0
KMD1 262301Z 16011KT 29/20 A2996 RMK A01 T02880196  RH  057%=      5-min Rain = 0
KMD1 262302Z 16009KT 29/20 A2996 RMK A01 T02870196  RH  058%=      5-min Rain = 0
KMD1 262303Z 15007KT 29/20 A2996 RMK A01 T02860197  RH  058%=      5-min Rain = 0
KMD1 262304Z 15008KT 29/20 A2997 RMK A01 T02870201  RH  060%=      5-min Rain = 0
KMD1 262305Z 15011KT 29/19 A2997 RMK A01 T02860193  RH  057%=      5-min Rain = 0
KMD1 262306Z 14012KT 29/19 A2997 RMK A01 T02850193  RH  057%=      5-min Rain = 0
KMD1 262307Z 15010KT 28/20 A2997 RMK A01 T02840196  RH  059%=      5-min Rain = 0
KMD1 262308Z 15011KT 28/19 A2997 RMK A01 T02840192  RH  057%=      5-min Rain = 0
KMD1 262309Z 15010G15KT 28/20 A2997 RMK A01 T02840195  RH  058%=      5-min Rain = 0
KMD1 262310Z 16013KT 29/19 A2996 RMK A01 T02850192  RH  057%=      5-min Rain = 0
KMD1 262311Z 16011KT 29/19 A2996 RMK A01 T02860192  RH  057%=      5-min Rain = 0
KMD1 262312Z 14010KT 29/20 A2997 RMK A01 T02860196  RH  058%=      5-min Rain = 0
KMD1 262313Z 14012KT 29/20 A2997 RMK A01 T02850195  RH  058%=      5-min Rain = 0
KMD1 262314Z 14014KT 28/19 A2997 RMK A01 T02840194  RH  058%=      5-min Rain = 0
KMD1 262315Z 15010G15KT 28/20 A2997 RMK A01 T02830195  RH  059%=      5-min Rain = 0
KMD1 262316Z 15011KT 28/20 A2997 RMK A01 T02830195  RH  059%=      5-min Rain = 0
KMD1 262317Z 15012KT 28/19 A2997 RMK A01 T02840193  RH  058%=      5-min Rain = 0
KMD1 262318Z 15013KT 28/19 A2997 RMK A01 T02840192  RH  057%=      5-min Rain = 0
KMD1 262319Z 16013KT 29/19 A2997 RMK A01 T02850191  RH  057%=      5-min Rain = 0
KMD1 262320Z 15012KT 29/19 A2997 RMK A01 T02860193  RH  057%=      5-min Rain = 0
KMD1 262321Z 15011KT 29/20 A2997 RMK A01 T02860195  RH  058%=      5-min Rain = 0
KMD1 262322Z 16009KT 29/20 A2997 RMK A01 T02850195  RH  058%=      5-min Rain = 0
KMD1 262323Z 16011KT 29/19 A2997 RMK A01 T02860194  RH  058%=      5-min Rain = 0
KMD1 262324Z 16010KT 29/19 A2997 RMK A01 T02860194  RH  057%=      5-min Rain = 0
KMD1 262325Z 15008KT 29/20 A2997 RMK A01 T02870195  RH  058%=      5-min Rain = 0
KMD1 262326Z 16009G14KT 29/20 A2997 RMK A01 T02870195  RH  058%=      5-min Rain = 0
KMD1 262327Z 15011KT 29/19 A2997 RMK A01 T02870193  RH  057%=      5-min Rain = 0
KMD1 262328Z 16010KT 29/19 A2997 RMK A01 T02860193  RH  057%=      5-min Rain = 0
KMD1 262329Z 15009KT 29/20 A2997 RMK A01 T02860198  RH  059%=      5-min Rain = 0
KMD1 262330Z 14011KT 29/20 A2997 RMK A01 T02850197  RH  059%=      5-min Rain = 0
KMD1 262331Z 14012KT 28/20 A2996 RMK A01 T02830196  RH  059%=      5-min Rain = 0
KMD1 262332Z 14012G17KT 28/19 A2996 RMK A01 T02830193  RH  058%=      5-min Rain = 0
KMD1 262333Z 15011KT 28/20 A2996 RMK A01 T02830195  RH  059%=      5-min Rain = 0
KMD1 262334Z 14008KT 28/20 A2996 RMK A01 T02830197  RH  060%=      5-min Rain = 0
KMD1 262335Z 15010KT 28/20 A2996 RMK A01 T02820199  RH  060%=      5-min Rain = 0
KMD1 262336Z 15011G16KT 28/20 A2997 RMK A01 T02810197  RH  060%=      5-min Rain = 0
KMD1 262337Z 15014KT 28/19 A2996 RMK A01 T02810194  RH  059%=      5-min Rain = 0
KMD1 262338Z 15012KT 28/19 A2996 RMK A01 T02810194  RH  059%=      5-min Rain = 0
KMD1 262339Z 15012KT 28/19 A2996 RMK A01 T02820194  RH  059%=      5-min Rain = 0
KMD1 262340Z 16013KT 28/19 A2996 RMK A01 T02820193  RH  058%=      5-min Rain = 0
KMD1 262341Z 16015KT 28/19 A2996 RMK A01 T02830191  RH  057%=      5-min Rain = 0
KMD1 262342Z 15015KT 28/19 A2996 RMK A01 T02830190  RH  057%=      5-min Rain = 0
KMD1 262343Z 16015KT 28/19 A2996 RMK A01 T02830190  RH  057%=      5-min Rain = 0
KMD1 262344Z 16010KT 28/19 A2996 RMK A01 T02830192  RH  058%=      5-min Rain = 0
KMD1 262345Z 17012KT 28/19 A2996 RMK A01 T02830192  RH  058%=      5-min Rain = 0
KMD1 262346Z 16009KT 28/19 A2997 RMK A01 T02820193  RH  058%=      5-min Rain = 0
KMD1 262347Z 16009KT 28/20 A2997 RMK A01 T02820195  RH  059%=      5-min Rain = 0
KMD1 262348Z 17012KT 28/19 A2997 RMK A01 T02810194  RH  059%=      5-min Rain = 0
KMD1 262349Z 16014KT 28/19 A2997 RMK A01 T02810191  RH  058%=      5-min Rain = 0
KMD1 262350Z 16012KT 28/19 A2997 RMK A01 T02810192  RH  058%=      5-min Rain = 0
KMD1 262351Z 16011KT 28/19 A2997 RMK A01 T02810192  RH  059%=      5-min Rain = 0
KMD1 262352Z 17011KT 28/19 A2997 RMK A01 T02810191  RH  058%=      5-min Rain = 0
KMD1 262353Z 17010KT 28/19 A2997 RMK A01 T02810193  RH  059%=      5-min Rain = 0
KMD1 262354Z 17010KT 28/19 A2997 RMK A01 T02810193  RH  059%=      5-min Rain = 0
KMD1 262355Z 17009KT 28/19 A2997 RMK A01 T02800194  RH  060%=      5-min Rain = 0
KMD1 262356Z 17007KT 28/19 A2997 RMK A01 T02800194  RH  060%=      5-min Rain = 0
KMD1 262357Z 16008KT 28/20 A2997 RMK A01 T02800195  RH  060%=      5-min Rain = 0
KMD1 262358Z 18008KT 28/20 A2997 RMK A01 T02790195  RH  060%=      5-min Rain = 0
KMD1 262359Z 16009KT 28/20 A2997 RMK A01 T02790195  RH  060%=      5-min Rain = 0
KMD1 270000Z 17010KT 28/19 A2997 RMK A01 T02790194  RH  060%=      5-min Rain = 0
KMD1 270001Z 16011KT 28/19 A2997 RMK A01 T02790194  RH  060%=      5-min Rain = 0
KMD1 270002Z 15009KT 28/19 A2997 RMK A01 T02790192  RH  059%=      5-min Rain = 0
KMD1 270003Z 16011KT 28/19 A2997 RMK A01 T02790193  RH  059%=      5-min Rain = 0
KMD1 270004Z 16009KT 28/19 A2997 RMK A01 T02790194  RH  060%=      5-min Rain = 0
KMD1 270005Z 16010KT 28/19 A2997 RMK A01 T02790193  RH  059%=      5-min Rain = 0
KMD1 270006Z 16009KT 28/20 A2997 RMK A01 T02790195  RH  060%=      5-min Rain = 0
KMD1 270007Z 16009KT 28/19 A2997 RMK A01 T02790193  RH  060%=      5-min Rain = 0
KMD1 270008Z 15008KT 28/19 A2997 RMK A01 T02790194  RH  060%=      5-min Rain = 0
KMD1 270009Z 16008KT 28/20 A2997 RMK A01 T02790196  RH  061%=      5-min Rain = 0
KMD1 270010Z 15007KT 28/20 A2997 RMK A01 T02780195  RH  061%=      5-min Rain = 0
KMD1 270011Z 16007KT 28/20 A2997 RMK A01 T02770197  RH  061%=      5-min Rain = 0
KMD1 270012Z 14007KT 28/20 A2997 RMK A01 T02770197  RH  062%=      5-min Rain = 0
KMD1 270013Z 15009KT 28/20 A2997 RMK A01 T02760197  RH  062%=      5-min Rain = 0
KMD1 270014Z 15009KT 28/20 A2997 RMK A01 T02750197  RH  062%=      5-min Rain = 0
KMD1 270015Z 14008KT 28/20 A2997 RMK A01 T02750196  RH  062%=      5-min Rain = 0
KMD1 270016Z 15008KT 28/20 A2997 RMK A01 T02750197  RH  063%=      5-min Rain = 0
KMD1 270017Z 15009KT 27/20 A2997 RMK A01 T02740197  RH  063%=      5-min Rain = 0
KMD1 270018Z 15009KT 27/20 A2997 RMK A01 T02740195  RH  062%=      5-min Rain = 0
KMD1 270019Z 15007KT 28/20 A2997 RMK A01 T02750197  RH  062%=      5-min Rain = 0
KMD1 270020Z 14010KT 28/20 A2997 RMK A01 T02750197  RH  063%=      5-min Rain = 0
KMD1 270021Z 15010KT 28/20 A2997 RMK A01 T02750197  RH  062%=      5-min Rain = 0
KMD1 270022Z 15009KT 27/20 A2997 RMK A01 T02740196  RH  062%=      5-min Rain = 0
KMD1 270023Z 15007KT 27/20 A2997 RMK A01 T02740196  RH  062%=      5-min Rain = 0
KMD1 270024Z 15007KT 27/20 A2997 RMK A01 T02740198  RH  063%=      5-min Rain = 0
KMD1 270025Z 15007KT 27/20 A2997 RMK A01 T02730198  RH  064%=      5-min Rain = 0
KMD1 270026Z 14009KT 27/20 A2997 RMK A01 T02720196  RH  063%=      5-min Rain = 0
KMD1 270027Z 14009KT 27/20 A2997 RMK A01 T02730196  RH  063%=      5-min Rain = 0
KMD1 270028Z 15008KT 27/20 A2998 RMK A01 T02730197  RH  063%=      5-min Rain = 0
KMD1 270029Z 14011KT 27/20 A2998 RMK A01 T02730196  RH  063%=      5-min Rain = 0
KMD1 270030Z 15007KT 27/20 A2998 RMK A01 T02730197  RH  063%=      5-min Rain = 0
KMD1 270031Z 16006KT 27/20 A2998 RMK A01 T02720198  RH  064%=      5-min Rain = 0
KMD1 270032Z 16008KT 27/20 A2998 RMK A01 T02720196  RH  063%=      5-min Rain = 0
KMD1 270033Z 15009KT 27/20 A2998 RMK A01 T02720196  RH  063%=      5-min Rain = 0
KMD1 270034Z 16008KT 27/20 A2998 RMK A01 T02720195  RH  063%=      5-min Rain = 0
KMD1 270035Z 15009KT 27/20 A2998 RMK A01 T02720196  RH  063%=      5-min Rain = 0
KMD1 270036Z 15009KT 27/19 A2997 RMK A01 T02720194  RH  062%=      5-min Rain = 0
KMD1 270037Z 16006KT 27/20 A2997 RMK A01 T02730195  RH  062%=      5-min Rain = 0
KMD1 270038Z 15007KT 27/20 A2997 RMK A01 T02730196  RH  063%=      5-min Rain = 0
KMD1 270039Z 16007KT 27/20 A2997 RMK A01 T02730196  RH  063%=      5-min Rain = 0
KMD1 270040Z 15007KT 27/20 A2997 RMK A01 T02720195  RH  063%=      5-min Rain = 0
KMD1 270041Z 15008KT 27/19 A2997 RMK A01 T02720194  RH  062%=      5-min Rain = 0
KMD1 270042Z 15007KT 27/20 A2997 RMK A01 T02730195  RH  062%=      5-min Rain = 0
KMD1 270043Z 15007KT 27/20 A2997 RMK A01 T02730195  RH  063%=      5-min Rain = 0
KMD1 270044Z 16007KT 27/20 A2997 RMK A01 T02720195  RH  063%=      5-min Rain = 0
KMD1 270045Z 15009KT 27/20 A2997 RMK A01 T02720195  RH  063%=      5-min Rain = 0
KMD1 270046Z 15009KT 27/19 A2997 RMK A01 T02720194  RH  062%=      5-min Rain = 0
KMD1 270047Z 14007KT 27/20 A2997 RMK A01 T02720196  RH  063%=      5-min Rain = 0
KMD1 270048Z 15007KT 27/20 A2997 RMK A01 T02720196  RH  063%=      5-min Rain = 0
KMD1 270049Z 15008KT 27/20 A2997 RMK A01 T02710196  RH  064%=      5-min Rain = 0
KMD1 270050Z 15011KT 27/20 A2997 RMK A01 T02700195  RH  063%=      5-min Rain = 0
KMD1 270051Z 15009KT 27/20 A2997 RMK A01 T02710195  RH  063%=      5-min Rain = 0
KMD1 270052Z 14007KT 27/20 A2997 RMK A01 T02710197  RH  064%=      5-min Rain = 0
KMD1 270053Z 14007KT 27/20 A2997 RMK A01 T02700197  RH  064%=      5-min Rain = 0
KMD1 270054Z 14009KT 27/20 A2997 RMK A01 T02690197  RH  064%=      5-min Rain = 0
KMD1 270055Z 15007KT 27/20 A2997 RMK A01 T02690197  RH  065%=      5-min Rain = 0
KMD1 270056Z 14008KT 27/20 A2997 RMK A01 T02690197  RH  065%=      5-min Rain = 0
KMD1 270057Z 15008KT 27/20 A2997 RMK A01 T02680197  RH  065%=      5-min Rain = 0
KMD1 270058Z 15007KT 27/20 A2996 RMK A01 T02680197  RH  065%=      5-min Rain = 0
KMD1 270059Z 14008KT 27/20 A2996 RMK A01 T02680196  RH  065%=      5-min Rain = 0
KMD1 270100Z 14009KT 27/20 A2996 RMK A01 T02680196  RH  065%=      5-min Rain = 0
KMD1 270101Z 14010KT 27/20 A2996 RMK A01 T02680197  RH  065%=      5-min Rain = 0
KMD1 270102Z 14010KT 27/20 A2996 RMK A01 T02680196  RH  065%=      5-min Rain = 0
KMD1 270103Z 15008KT 27/20 A2996 RMK A01 T02680197  RH  065%=      5-min Rain = 0
KMD1 270104Z 14008KT 27/20 A2996 RMK A01 T02680198  RH  066%=      5-min Rain = 0
KMD1 270105Z 14008KT 27/20 A2996 RMK A01 T02670197  RH  066%=      5-min Rain = 0
KMD1 270106Z 14008KT 27/20 A2996 RMK A01 T02670198  RH  066%=      5-min Rain = 0
KMD1 270107Z 14007KT 27/20 A2996 RMK A01 T02670198  RH  066%=      5-min Rain = 0
KMD1 270108Z 14009KT 27/20 A2996 RMK A01 T02660199  RH  066%=      5-min Rain = 0
KMD1 270109Z 14007KT 27/20 A2996 RMK A01 T02660198  RH  066%=      5-min Rain = 0
KMD1 270110Z 14009KT 27/20 A2997 RMK A01 T02650197  RH  066%=      5-min Rain = 0
KMD1 270111Z 14008KT 27/20 A2997 RMK A01 T02660197  RH  066%=      5-min Rain = 0
KMD1 270112Z 14009KT 27/20 A2997 RMK A01 T02670198  RH  066%=      5-min Rain = 0
KMD1 270113Z 14008KT 27/20 A2997 RMK A01 T02670198  RH  066%=      5-min Rain = 0
KMD1 270114Z 14007KT 27/20 A2997 RMK A01 T02660199  RH  066%=      5-min Rain = 0
KMD1 270115Z 14007KT 27/20 A2996 RMK A01 T02660199  RH  067%=      5-min Rain = 0
KMD1 270116Z 14009KT 27/20 A2996 RMK A01 T02650199  RH  067%=      5-min Rain = 0
KMD1 270117Z 13009KT 27/20 A2996 RMK A01 T02650198  RH  067%=      5-min Rain = 0
KMD1 270118Z 13009KT 27/20 A2996 RMK A01 T02650198  RH  067%=      5-min Rain = 0
KMD1 270119Z 13007KT 27/20 A2996 RMK A01 T02650199  RH  067%=      5-min Rain = 0
KMD1 270120Z 13010KT 26/20 A2996 RMK A01 T02640199  RH  067%=      5-min Rain = 0
KMD1 270121Z 13009KT 27/20 A2995 RMK A01 T02650198  RH  067%=      5-min Rain = 0
KMD1 270122Z 13009KT 27/20 A2995 RMK A01 T02650199  RH  067%=      5-min Rain = 0
KMD1 270123Z 13009KT 26/20 A2995 RMK A01 T02640200  RH  068%=      5-min Rain = 0
KMD1 270124Z 13011KT 26/20 A2995 RMK A01 T02630198  RH  067%=      5-min Rain = 0
KMD1 270125Z 13011KT 26/20 A2995 RMK A01 T02630199  RH  068%=      5-min Rain = 0
KMD1 270126Z 12011KT 26/20 A2994 RMK A01 T02630199  RH  068%=      5-min Rain = 0
KMD1 270127Z 13011KT 26/20 A2994 RMK A01 T02630198  RH  067%=      5-min Rain = 0
KMD1 270128Z 13010KT 26/20 A2994 RMK A01 T02640198  RH  067%=      5-min Rain = 0
KMD1 270129Z 12010KT 26/20 A2994 RMK A01 T02640198  RH  067%=      5-min Rain = 0
KMD1 270130Z 12009KT 26/20 A2995 RMK A01 T02640198  RH  067%=      5-min Rain = 0
KMD1 270131Z 13012KT 26/20 A2995 RMK A01 T02640198  RH  067%=      5-min Rain = 0
KMD1 270132Z 12008KT 27/20 A2994 RMK A01 T02650197  RH  066%=      5-min Rain = 0
KMD1 270133Z 13009KT 27/20 A2994 RMK A01 T02650199  RH  067%=      5-min Rain = 0
KMD1 270134Z 11007KT 26/20 A2994 RMK A01 T02640200  RH  068%=      5-min Rain = 0
KMD1 270135Z 11009KT 26/20 A2994 RMK A01 T02630197  RH  067%=      5-min Rain = 0
KMD1 270136Z 12009G14KT 26/20 A2994 RMK A01 T02630198  RH  067%=      5-min Rain = 0
KMD1 270137Z 11008KT 26/20 A2994 RMK A01 T02630197  RH  067%=      5-min Rain = 0
KMD1 270138Z 11008KT 26/20 A2994 RMK A01 T02640198  RH  067%=      5-min Rain = 0
KMD1 270139Z 10007KT 26/20 A2994 RMK A01 T02640197  RH  067%=      5-min Rain = 0
KMD1 270140Z 11007KT 26/20 A2994 RMK A01 T02640197  RH  066%=      5-min Rain = 0
KMD1 270141Z 11007G12KT 26/20 A2994 RMK A01 T02640198  RH  067%=      5-min Rain = 0
KMD1 270142Z 11008KT 26/20 A2994 RMK A01 T02640198  RH  067%=      5-min Rain = 0
KMD1 270143Z 12006KT 26/20 A2995 RMK A01 T02640198  RH  067%=      5-min Rain = 0
KMD1 270144Z 14005KT 26/20 A2995 RMK A01 T02630198  RH  068%=      5-min Rain = 0
KMD1 270145Z 15006KT 26/20 A2995 RMK A01 T02630199  RH  068%=      5-min Rain = 0
KMD1 270146Z 15006KT 26/20 A2995 RMK A01 T02620198  RH  068%=      5-min Rain = 0
KMD1 270147Z 14007KT 26/20 A2995 RMK A01 T02620197  RH  068%=      5-min Rain = 0
KMD1 270148Z 14009KT 26/20 A2995 RMK A01 T02620197  RH  067%=      5-min Rain = 0
KMD1 270149Z 16010KT 26/20 A2995 RMK A01 T02620197  RH  067%=      5-min Rain = 0
KMD1 270150Z 15012KT 26/20 A2995 RMK A01 T02620196  RH  067%=      5-min Rain = 0
KMD1 270151Z 15011KT 26/20 A2995 RMK A01 T02630196  RH  067%=      5-min Rain = 0
KMD1 270152Z 15012KT 26/20 A2995 RMK A01 T02640197  RH  067%=      5-min Rain = 0
KMD1 270153Z 15012KT 26/20 A2995 RMK A01 T02640196  RH  066%=      5-min Rain = 0
KMD1 270154Z 14013KT 27/20 A2995 RMK A01 T02650196  RH  066%=      5-min Rain = 0
KMD1 270155Z 14014KT 27/20 A2995 RMK A01 T02660196  RH  065%=      5-min Rain = 0
KMD1 270156Z 15012KT 27/20 A2995 RMK A01 T02670196  RH  065%=      5-min Rain = 0
KMD1 270157Z 15010KT 27/20 A2995 RMK A01 T02660196  RH  065%=      5-min Rain = 0
KMD1 270158Z 15014G22KT 27/20 A2995 RMK A01 T02650197  RH  066%=      5-min Rain = 0
KMD1 270159Z 15016G21KT 27/20 A2994 RMK A01 T02650196  RH  066%=      5-min Rain = 0
KMD1 270200Z 15012KT 27/20 A2994 RMK A01 T02660195  RH  065%=      5-min Rain = 0
KMD1 270201Z 15012KT 27/20 A2994 RMK A01 T02660197  RH  066%=      5-min Rain = 0
KMD1 270202Z 15012KT 27/20 A2994 RMK A01 T02650197  RH  066%=      5-min Rain = 0
KMD1 270203Z 15013KT 27/20 A2994 RMK A01 T02650196  RH  066%=      5-min Rain = 0
KMD1 270204Z 15014KT 27/20 A2994 RMK A01 T02650196  RH  066%=      5-min Rain = 0
KMD1 270205Z 15013KT 27/20 A2994 RMK A01 T02660195  RH  065%=      5-min Rain = 0
KMD1 270206Z 15013KT 27/20 A2994 RMK A01 T02660195  RH  065%=      5-min Rain = 0
KMD1 270207Z 15009KT 27/20 A2994 RMK A01 T02660196  RH  065%=      5-min Rain = 0
KMD1 270208Z 15014KT 27/20 A2994 RMK A01 T02660196  RH  066%=      5-min Rain = 0
KMD1 270209Z 15012KT 27/20 A2994 RMK A01 T02650196  RH  066%=      5-min Rain = 0
KMD1 270210Z 15012G18KT 27/20 A2994 RMK A01 T02660196  RH  066%=      5-min Rain = 0
KMD1 270211Z 15013KT 27/20 A2994 RMK A01 T02650195  RH  065%=      5-min Rain = 0
KMD1 270212Z 14011KT 27/20 A2994 RMK A01 T02650195  RH  065%=      5-min Rain = 0
KMD1 270213Z 15009KT 27/20 A2994 RMK A01 T02650196  RH  066%=      5-min Rain = 0
KMD1 270214Z 15011KT 27/20 A2994 RMK A01 T02650196  RH  066%=      5-min Rain = 0
KMD1 270215Z 15014KT 27/20 A2994 RMK A01 T02650196  RH  066%=      5-min Rain = 0
KMD1 270216Z 15010KT 26/20 A2994 RMK A01 T02640195  RH  066%=      5-min Rain = 0
KMD1 270217Z 15012G17KT 26/20 A2994 RMK A01 T02640196  RH  066%=      5-min Rain = 0
KMD1 270218Z 15012KT 26/20 A2994 RMK A01 T02640195  RH  066%=      5-min Rain = 0
KMD1 270219Z 14012G17KT 27/20 A2994 RMK A01 T02650195  RH  065%=      5-min Rain = 0
KMD1 270220Z 14011KT 27/20 A2993 RMK A01 T02650196  RH  066%=      5-min Rain = 0
KMD1 270221Z 14011KT 27/20 A2993 RMK A01 T02650196  RH  066%=      5-min Rain = 0
KMD1 270222Z 15013KT 26/20 A2993 RMK A01 T02640196  RH  066%=      5-min Rain = 0
KMD1 270223Z 14019G24KT 26/20 A2993 RMK A01 T02640195  RH  066%=      5-min Rain = 0
KMD1 270224Z 15014KT 27/20 A2993 RMK A01 T02650195  RH  065%=      5-min Rain = 0
KMD1 270225Z 16014KT 27/19 A2994 RMK A01 T02650194  RH  065%=      5-min Rain = 0
KMD1 270226Z 15011KT 27/20 A2994 RMK A01 T02660195  RH  065%=      5-min Rain = 0
KMD1 270227Z 16011KT 27/20 A2994 RMK A01 T02650195  RH  066%=      5-min Rain = 0
KMD1 270228Z 15014KT 27/20 A2994 RMK A01 T02650195  RH  066%=      5-min Rain = 0
KMD1 270229Z 15010KT 27/20 A2994 RMK A01 T02650195  RH  066%=      5-min Rain = 0
KMD1 270230Z 16011KT 26/20 A2994 RMK A01 T02640196  RH  066%=      5-min Rain = 0
KMD1 270231Z 15011KT 26/20 A2994 RMK A01 T02640195  RH  066%=      5-min Rain = 0
KMD1 270232Z 15014KT 26/20 A2994 RMK A01 T02640195  RH  066%=      5-min Rain = 0
KMD1 270233Z 15009KT 26/20 A2994 RMK A01 T02630196  RH  066%=      5-min Rain = 0
KMD1 270234Z 15010G15KT 26/20 A2994 RMK A01 T02630196  RH  067%=      5-min Rain = 0
KMD1 270235Z 14015KT 26/20 A2993 RMK A01 T02620195  RH  067%=      5-min Rain = 0
KMD1 270236Z 15012KT 26/19 A2993 RMK A01 T02620194  RH  066%=      5-min Rain = 0
KMD1 270237Z 14012KT 26/20 A2993 RMK A01 T02630195  RH  066%=      5-min Rain = 0
KMD1 270238Z 15013KT 26/20 A2993 RMK A01 T02630195  RH  066%=      5-min Rain = 0
KMD1 270239Z 14012KT 26/20 A2993 RMK A01 T02620195  RH  066%=      5-min Rain = 0
KMD1 270240Z 13012KT 26/20 A2993 RMK A01 T02620195  RH  067%=      5-min Rain = 0
KMD1 270241Z 14015KT 26/20 A2993 RMK A01 T02610195  RH  067%=      5-min Rain = 0
KMD1 270242Z 14017G22KT 26/20 A2993 RMK A01 T02610195  RH  067%=      5-min Rain = 0
KMD1 270243Z 14012G17KT 26/19 A2993 RMK A01 T02610194  RH  067%=      5-min Rain = 0
KMD1 270244Z 14013G18KT 26/20 A2993 RMK A01 T02620195  RH  067%=      5-min Rain = 0
KMD1 270245Z 14009KT 26/20 A2993 RMK A01 T02620196  RH  067%=      5-min Rain = 0
KMD1 270246Z 15012KT 26/20 A2993 RMK A01 T02610196  RH  067%=      5-min Rain = 0
KMD1 270247Z 14010KT 26/20 A2993 RMK A01 T02610195  RH  067%=      5-min Rain = 0
KMD1 270248Z 14013KT 26/20 A2992 RMK A01 T02600195  RH  067%=      5-min Rain = 0
KMD1 270249Z 13012KT 26/20 A2992 RMK A01 T02600195  RH  067%=      5-min Rain = 0
KMD1 270250Z 14013KT 26/20 A2992 RMK A01 T02600195  RH  068%=      5-min Rain = 0
KMD1 270251Z 13014KT 26/20 A2992 RMK A01 T02600195  RH  067%=      5-min Rain = 0
KMD1 270252Z 14017KT 26/20 A2992 RMK A01 T02600195  RH  067%=      5-min Rain = 0
KMD1 270253Z 14014KT 26/19 A2992 RMK A01 T02600194  RH  067%=      5-min Rain = 0
KMD1 270254Z 13015KT 26/20 A2992 RMK A01 T02600195  RH  067%=      5-min Rain = 0
KMD1 270255Z 14016KT 26/20 A2992 RMK A01 T02600195  RH  067%=      5-min Rain = 0
KMD1 270256Z 13012KT 26/20 A2992 RMK A01 T02600195  RH  067%=      5-min Rain = 0
KMD1 270257Z 13014KT 26/20 A2992 RMK A01 T02600196  RH  068%=      5-min Rain = 0
KMD1 270258Z 13014G20KT 26/20 A2992 RMK A01 T02580196  RH  068%=      5-min Rain = 0
KMD1 270259Z 13013KT 26/20 A2992 RMK A01 T02580195  RH  068%=      5-min Rain = 0
KMD1 270300Z 14014KT 26/20 A2992 RMK A01 T02580196  RH  069%=      5-min Rain = 0
KMD1 270301Z 14014KT 26/20 A2992 RMK A01 T02580195  RH  068%=      5-min Rain = 0
KMD1 270302Z 14014G22KT 26/19 A2992 RMK A01 T02580194  RH  068%=      5-min Rain = 0
KMD1 270303Z 14019KT 26/19 A2992 RMK A01 T02590194  RH  067%=      5-min Rain = 0
KMD1 270304Z 15015KT 26/19 A2992 RMK A01 T02600194  RH  067%=      5-min Rain = 0
KMD1 270305Z 14014KT 26/19 A2993 RMK A01 T02610193  RH  067%=      5-min Rain = 0
KMD1 270306Z 13013KT 26/20 A2992 RMK A01 T02610195  RH  067%=      5-min Rain = 0
KMD1 270307Z 13015KT 26/20 A2992 RMK A01 T02600195  RH  067%=      5-min Rain = 0
KMD1 270308Z 14015KT 26/19 A2992 RMK A01 T02590194  RH  067%=      5-min Rain = 0
KMD1 270309Z 14015KT 26/19 A2992 RMK A01 T02590194  RH  067%=      5-min Rain = 0
KMD1 270310Z 13015KT 26/19 A2991 RMK A01 T02600194  RH  067%=      5-min Rain = 0
KMD1 270311Z 14014KT 26/19 A2991 RMK A01 T02590194  RH  067%=      5-min Rain = 0
KMD1 270312Z 14017KT 26/19 A2991 RMK A01 T02600193  RH  067%=      5-min Rain = 0
KMD1 270313Z 14014KT 26/19 A2991 RMK A01 T02590193  RH  067%=      5-min Rain = 0
KMD1 270314Z 13012KT 26/19 A2991 RMK A01 T02590194  RH  067%=      5-min Rain = 0
KMD1 270315Z 14014KT 26/19 A2991 RMK A01 T02580194  RH  068%=      5-min Rain = 0
KMD1 270316Z 13015KT 26/19 A2992 RMK A01 T02580194  RH  068%=      5-min Rain = 0
KMD1 270317Z 14013KT 26/19 A2992 RMK A01 T02580194  RH  068%=      5-min Rain = 0
KMD1 270318Z 14012KT 26/19 A2992 RMK A01 T02580193  RH  068%=      5-min Rain = 0
KMD1 270319Z 13010G17KT 26/19 A2992 RMK A01 T02580194  RH  068%=      5-min Rain = 0
KMD1 270320Z 14016KT 26/19 A2992 RMK A01 T02580194  RH  068%=      5-min Rain = 0
KMD1 270321Z 13014KT 26/19 A2992 RMK A01 T02580192  RH  067%=      5-min Rain = 0
KMD1 270322Z 14016G21KT 26/19 A2992 RMK A01 T02580193  RH  067%=      5-min Rain = 0
KMD1 270323Z 13016KT 26/19 A2992 RMK A01 T02580193  RH  067%=      5-min Rain = 0
KMD1 270324Z 13014G20KT 26/19 A2992 RMK A01 T02580193  RH  067%=      5-min Rain = 0
KMD1 270325Z 13014G19KT 26/19 A2991 RMK A01 T02580193  RH  067%=      5-min Rain = 0
KMD1 270326Z 13012G18KT 26/19 A2991 RMK A01 T02570194  RH  068%=      5-min Rain = 0
KMD1 270327Z 13013KT 26/19 A2991 RMK A01 T02570194  RH  068%=      5-min Rain = 0
KMD1 270328Z 13014KT 26/19 A2991 RMK A01 T02560194  RH  068%=      5-min Rain = 0
KMD1 270329Z 13013KT 26/19 A2991 RMK A01 T02560194  RH  069%=      5-min Rain = 0
KMD1 270330Z 14015G20KT 26/19 A2992 RMK A01 T02550193  RH  068%=      5-min Rain = 0
KMD1 270331Z 13017KT 26/19 A2992 RMK A01 T02560192  RH  068%=      5-min Rain = 0
KMD1 270332Z 13013KT 26/19 A2992 RMK A01 T02570193  RH  068%=      5-min Rain = 0
KMD1 270333Z 14011KT 26/19 A2992 RMK A01 T02570193  RH  068%=      5-min Rain = 0
KMD1 270334Z 14014KT 26/19 A2992 RMK A01 T02570192  RH  068%=      5-min Rain = 0
KMD1 270335Z 13012KT 26/19 A2992 RMK A01 T02570192  RH  067%=      5-min Rain = 0
KMD1 270336Z 13009KT 26/19 A2991 RMK A01 T02570193  RH  068%=      5-min Rain = 0
KMD1 270337Z 12009KT 26/19 A2992 RMK A01 T02560194  RH  069%=      5-min Rain = 0
KMD1 270338Z 13014KT 26/19 A2992 RMK A01 T02550193  RH  069%=      5-min Rain = 0
KMD1 270339Z 13011KT 26/19 A2992 RMK A01 T02550193  RH  068%=      5-min Rain = 0
KMD1 270340Z 12009KT 26/19 A2992 RMK A01 T02550192  RH  068%=      5-min Rain = 0
KMD1 270341Z 14008KT 26/19 A2993 RMK A01 T02550192  RH  068%=      5-min Rain = 0
KMD1 270342Z 14011KT 26/19 A2993 RMK A01 T02550192  RH  068%=      5-min Rain = 0
KMD1 270343Z 15009KT 26/19 A2993 RMK A01 T02550192  RH  068%=      5-min Rain = 0
KMD1 270344Z 16009KT 26/19 A2993 RMK A01 T02550193  RH  068%=      5-min Rain = 0
KMD1 270345Z 15008KT 26/19 A2993 RMK A01 T02550193  RH  069%=      5-min Rain = 0
KMD1 270346Z 15009KT 25/19 A2993 RMK A01 T02540191  RH  068%=      5-min Rain = 0
KMD1 270347Z 16011KT 26/19 A2994 RMK A01 T02550192  RH  068%=      5-min Rain = 0
KMD1 270348Z 15009KT 26/19 A2994 RMK A01 T02550192  RH  068%=      5-min Rain = 0
KMD1 270349Z 14013KT 26/19 A2993 RMK A01 T02550193  RH  068%=      5-min Rain = 0
KMD1 270350Z 13013KT 25/19 A2993 RMK A01 T02540192  RH  068%=      5-min Rain = 0
KMD1 270351Z 14012KT 25/19 A2993 RMK A01 T02540193  RH  069%=      5-min Rain = 0
KMD1 270352Z 15012KT 25/19 A2993 RMK A01 T02530192  RH  069%=      5-min Rain = 0
KMD1 270353Z 16011KT 25/19 A2994 RMK A01 T02530192  RH  069%=      5-min Rain = 0
KMD1 270354Z 17009KT 25/19 A2994 RMK A01 T02540192  RH  069%=      5-min Rain = 0
KMD1 270355Z 18010KT 25/19 A2994 RMK A01 T02540192  RH  069%=      5-min Rain = 0
KMD1 270356Z 16011KT 25/19 A2994 RMK A01 T02540193  RH  069%=      5-min Rain = 0
KMD1 270357Z 16011KT 25/19 A2994 RMK A01 T02540194  RH  069%=      5-min Rain = 0
KMD1 270358Z 16013KT 25/19 A2994 RMK A01 T02530193  RH  069%=      5-min Rain = 0
KMD1 270359Z 15014KT 25/19 A2993 RMK A01 T02530193  RH  069%=      5-min Rain = 0
KMD1 270400Z 14015G20KT 25/19 A2993 RMK A01 T02530193  RH  069%=      5-min Rain = 0
KMD1 270401Z 14014KT 25/19 A2993 RMK A01 T02530193  RH  069%=      5-min Rain = 0
KMD1 270402Z 14015KT 25/19 A2993 RMK A01 T02530194  RH  070%=      5-min Rain = 0
KMD1 270403Z 15016KT 25/19 A2993 RMK A01 T02520193  RH  069%=      5-min Rain = 0
KMD1 270404Z 16016G21KT 25/19 A2993 RMK A01 T02530192  RH  069%=      5-min Rain = 0
KMD1 270405Z 15011KT 25/19 A2993 RMK A01 T02540193  RH  069%=      5-min Rain = 0
KMD1 270406Z 16013KT 25/19 A2993 RMK A01 T02530193  RH  069%=      5-min Rain = 0
KMD1 270407Z 16012KT 25/19 A2993 RMK A01 T02530193  RH  070%=      5-min Rain = 0
KMD1 270408Z 16011KT 25/19 A2993 RMK A01 T02520193  RH  070%=      5-min Rain = 0
KMD1 270409Z 15010KT 25/19 A2994 RMK A01 T02520193  RH  070%=      5-min Rain = 0
KMD1 270410Z 16008KT 25/19 A2993 RMK A01 T02510193  RH  070%=      5-min Rain = 0
KMD1 270411Z 15011KT 25/19 A2993 RMK A01 T02510194  RH  070%=      5-min Rain = 0
KMD1 270412Z 15011KT 25/19 A2993 RMK A01 T02500193  RH  071%=      5-min Rain = 0
KMD1 270413Z 15013KT 25/19 A2993 RMK A01 T02500192  RH  070%=      5-min Rain = 0
KMD1 270414Z 15013G18KT 25/19 A2993 RMK A01 T02510192  RH  070%=      5-min Rain = 0
KMD1 270415Z 15013KT 25/19 A2993 RMK A01 T02510193  RH  070%=      5-min Rain = 0
KMD1 270416Z 15012KT 25/19 A2993 RMK A01 T02510193  RH  070%=      5-min Rain = 0
KMD1 270417Z 16011KT 25/19 A2993 RMK A01 T02510194  RH  071%=      5-min Rain = 0
KMD1 270418Z 16010KT 25/19 A2993 RMK A01 T02500193  RH  071%=      5-min Rain = 0
KMD1 270419Z 15009KT 25/19 A2993 RMK A01 T02490193  RH  071%=      5-min Rain = 0
KMD1 270420Z 15010KT 25/19 A2993 RMK A01 T02490193  RH  071%=      5-min Rain = 0
KMD1 270421Z 15010KT 25/19 A2994 RMK A01 T02490193  RH  071%=      5-min Rain = 0
KMD1 270422Z 17012KT 25/19 A2994 RMK A01 T02480193  RH  071%=      5-min Rain = 0
KMD1 270423Z 17012KT 25/19 A2994 RMK A01 T02480193  RH  071%=      5-min Rain = 0
KMD1 270424Z 16012KT 25/19 A2994 RMK A01 T02480193  RH  071%=      5-min Rain = 0
KMD1 270425Z 17011KT 25/19 A2994 RMK A01 T02480193  RH  071%=      5-min Rain = 0
KMD1 270426Z 18012KT 25/19 A2994 RMK A01 T02480193  RH  071%=      5-min Rain = 0
KMD1 270427Z 16012KT 25/19 A2994 RMK A01 T02480193  RH  071%=      5-min Rain = 0
KMD1 270428Z 16010KT 25/19 A2994 RMK A01 T02480194  RH  072%=      5-min Rain = 0
KMD1 270429Z 16009KT 25/19 A2994 RMK A01 T02480194  RH  072%=      5-min Rain = 0
KMD1 270430Z 16009KT 25/19 A2994 RMK A01 T02470194  RH  072%=      5-min Rain = 0
KMD1 270431Z 16009KT 25/19 A2994 RMK A01 T02460194  RH  073%=      5-min Rain = 0
KMD1 270432Z 16009KT 25/19 A2994 RMK A01 T02460194  RH  073%=      5-min Rain = 0
KMD1 270433Z 16009KT 25/19 A2994 RMK A01 T02450193  RH  073%=      5-min Rain = 0
KMD1 270434Z 15010KT 25/19 A2994 RMK A01 T02450194  RH  073%=      5-min Rain = 0
KMD1 270435Z 16009KT 25/19 A2994 RMK A01 T02450194  RH  073%=      5-min Rain = 0
KMD1 270436Z 16009KT 25/19 A2995 RMK A01 T02450194  RH  073%=      5-min Rain = 0
KMD1 270437Z 16009KT 25/19 A2995 RMK A01 T02450193  RH  073%=      5-min Rain = 0
KMD1 270438Z 16008KT 25/19 A2995 RMK A01 T02450193  RH  073%=      5-min Rain = 0
KMD1 270439Z 16009KT 25/19 A2995 RMK A01 T02450194  RH  073%=      5-min Rain = 0
KMD1 270440Z 16010KT 24/19 A2995 RMK A01 T02440194  RH  073%=      5-min Rain = 0
KMD1 270441Z 16012KT 24/19 A2995 RMK A01 T02440194  RH  073%=      5-min Rain = 0
KMD1 270442Z 16011KT 24/19 A2995 RMK A01 T02440193  RH  073%=      5-min Rain = 0
KMD1 270443Z 16009KT 25/19 A2995 RMK A01 T02450194  RH  073%=      5-min Rain = 0
KMD1 270444Z 15009KT 24/19 A2995 RMK A01 T02440194  RH  073%=      5-min Rain = 0
KMD1 270445Z 15008KT 24/19 A2995 RMK A01 T02440194  RH  074%=      5-min Rain = 0
KMD1 270446Z 16008G13KT 24/19 A2995 RMK A01 T02440194  RH  074%=      5-min Rain = 0
KMD1 270447Z 16011KT 24/19 A2994 RMK A01 T02430194  RH  074%=      5-min Rain = 0
KMD1 270448Z 16009KT 24/19 A2994 RMK A01 T02430194  RH  074%=      5-min Rain = 0
KMD1 270449Z 16010KT 24/19 A2994 RMK A01 T02430194  RH  074%=      5-min Rain = 0
KMD1 270450Z 15008KT 24/19 A2994 RMK A01 T02430194  RH  074%=      5-min Rain = 0
KMD1 270451Z 16008G13KT 24/19 A2994 RMK A01 T02430194  RH  074%=      5-min Rain = 0
KMD1 270452Z 15010KT 24/19 A2994 RMK A01 T02420194  RH  074%=      5-min Rain = 0
KMD1 270453Z 16010KT 24/19 A2994 RMK A01 T02420194  RH  075%=      5-min Rain = 0
KMD1 270454Z 15011KT 24/19 A2994 RMK A01 T02410193  RH  074%=      5-min Rain = 0
KMD1 270455Z 15010KT 24/19 A2994 RMK A01 T02420193  RH  074%=      5-min Rain = 0
KMD1 270456Z 15011KT 24/19 A2994 RMK A01 T02420194  RH  074%=      5-min Rain = 0
KMD1 270457Z 16010KT 24/19 A2994 RMK A01 T02420194  RH  074%=      5-min Rain = 0
KMD1 270458Z 15008KT 24/19 A2994 RMK A01 T02420194  RH  074%=      5-min Rain = 0
KMD1 270459Z 16011KT 24/19 A2994 RMK A01 T02420194  RH  075%=      5-min Rain = 0

Page generated in 0.2107 seconds.